UAE729 OMDB-HUEN
Flight info
| Callsign | UAE729 |
|---|---|
| Flight time | N/A |
| Altitude | 37000 |
| Route | ANVIX7F/30R ANVIX R401 GIDIS G783 UKRAG L710 KUKDI B400 RIGAM B404 DEMGO UB404 HARGA UM216 IMVIP IMVIP1A |
| Aircraft | B77W/H-SDE1E2E3FGHIJ2J3J4J5M1RWXY/LB1D1 |
Departure
| Time | 2026-05-07 21:15 |
|---|---|
| Airport | Dubai International Airport (OMDB) |
Arrival
| Time | N/A |
|---|---|
| Airport | Entebbe International Airport (HUEN) |
| Time | Latitude | Longitude | Altitude | Speed | Heading |
|---|---|---|---|---|---|
| 2026-05-07 20:44 | 25.25241 | 55.35641 | 27 ft | 0 kts | 211° |
| 2026-05-07 21:01 | 25.25253 | 55.35649 | 27 ft | 2 kts | 212° |
| 2026-05-07 21:01 | 25.25267 | 55.35659 | 26 ft | 2 kts | 215° |
| 2026-05-07 21:01 | 25.25280 | 55.35670 | 25 ft | 2 kts | 218° |
| 2026-05-07 21:01 | 25.25293 | 55.35682 | 24 ft | 2 kts | 223° |
| 2026-05-07 21:02 | 25.25304 | 55.35695 | 25 ft | 2 kts | 232° |
| 2026-05-07 21:02 | 25.25313 | 55.35710 | 25 ft | 2 kts | 251° |
| 2026-05-07 21:02 | 25.25315 | 55.35728 | 27 ft | 2 kts | 288° |
| 2026-05-07 21:02 | 25.25310 | 55.35742 | 25 ft | 1 kts | 304° |
| 2026-05-07 21:05 | 25.25325 | 55.35715 | 27 ft | 8 kts | 300° |
| 2026-05-07 21:05 | 25.25366 | 55.35638 | 27 ft | 14 kts | 301° |
| 2026-05-07 21:05 | 25.25419 | 55.35543 | 27 ft | 15 kts | 302° |
| 2026-05-07 21:06 | 25.25458 | 55.35475 | 27 ft | 16 kts | 302° |
| 2026-05-07 21:06 | 25.25542 | 55.35326 | 27 ft | 18 kts | 302° |
| 2026-05-07 21:06 | 25.25604 | 55.35215 | 27 ft | 12 kts | 302° |
| 2026-05-07 21:06 | 25.25632 | 55.35167 | 27 ft | 11 kts | 309° |
| 2026-05-07 21:07 | 25.25704 | 55.35163 | 27 ft | 12 kts | 27° |
| 2026-05-07 21:07 | 25.25778 | 55.35214 | 27 ft | 13 kts | 32° |
| 2026-05-07 21:07 | 25.25863 | 55.35272 | 27 ft | 15 kts | 31° |
| 2026-05-07 21:07 | 25.25956 | 55.35335 | 27 ft | 15 kts | 36° |
| 2026-05-07 21:08 | 25.26007 | 55.35440 | 27 ft | 17 kts | 81° |
| 2026-05-07 21:08 | 25.25982 | 55.35567 | 27 ft | 18 kts | 120° |
| 2026-05-07 21:08 | 25.25915 | 55.35688 | 27 ft | 19 kts | 122° |
| 2026-05-07 21:08 | 25.25842 | 55.35819 | 27 ft | 21 kts | 122° |
| 2026-05-07 21:09 | 25.25764 | 55.35956 | 27 ft | 22 kts | 122° |
| 2026-05-07 21:09 | 25.25683 | 55.36101 | 27 ft | 21 kts | 122° |
| 2026-05-07 21:09 | 25.25602 | 55.36243 | 27 ft | 23 kts | 122° |
| 2026-05-07 21:09 | 25.25523 | 55.36385 | 27 ft | 22 kts | 122° |
| 2026-05-07 21:10 | 25.25438 | 55.36536 | 27 ft | 23 kts | 122° |
| 2026-05-07 21:10 | 25.25359 | 55.36678 | 27 ft | 21 kts | 121° |
| 2026-05-07 21:10 | 25.25282 | 55.36816 | 27 ft | 20 kts | 122° |
| 2026-05-07 21:10 | 25.25207 | 55.36948 | 27 ft | 21 kts | 122° |
| 2026-05-07 21:11 | 25.25132 | 55.37081 | 27 ft | 21 kts | 122° |
| 2026-05-07 21:11 | 25.25052 | 55.37224 | 27 ft | 22 kts | 122° |
| 2026-05-07 21:11 | 25.24884 | 55.37521 | 27 ft | 24 kts | 122° |
| 2026-05-07 21:12 | 25.24796 | 55.37679 | 27 ft | 24 kts | 122° |
| 2026-05-07 21:12 | 25.24713 | 55.37826 | 27 ft | 20 kts | 122° |
| 2026-05-07 21:12 | 25.24668 | 55.37916 | 27 ft | 10 kts | 96° |
| 2026-05-07 21:12 | 25.24700 | 55.37969 | 27 ft | 7 kts | 41° |
| 2026-05-07 21:13 | 25.24747 | 55.38006 | 27 ft | 9 kts | 34° |
| 2026-05-07 21:13 | 25.24802 | 55.38022 | 27 ft | 8 kts | 335° |
| 2026-05-07 21:13 | 25.24836 | 55.37976 | 27 ft | 0 kts | 300° |
| 2026-05-07 21:14 | 25.24840 | 55.37968 | 27 ft | 10 kts | 300° |
| 2026-05-07 21:14 | 25.24993 | 55.37691 | 27 ft | 80 kts | 301° |
| 2026-05-07 21:14 | 25.25411 | 55.36938 | 27 ft | 148 kts | 301° |
| 2026-05-07 21:14 | 25.26046 | 55.35792 | 36 ft | 197 kts | 301° |
| 2026-05-07 21:15 | 25.26759 | 55.34475 | 633 ft | 197 kts | 300° |
| 2026-05-07 21:15 | 25.27444 | 55.33207 | 1405 ft | 188 kts | 301° |
| 2026-05-07 21:15 | 25.28134 | 55.31982 | 2042 ft | 189 kts | 301° |
| 2026-05-07 21:15 | 25.28823 | 55.30721 | 2482 ft | 191 kts | 299° |
| 2026-05-07 21:16 | 25.29407 | 55.29407 | 2884 ft | 196 kts | 281° |
| 2026-05-07 21:16 | 25.29261 | 55.27927 | 3267 ft | 196 kts | 244° |
| 2026-05-07 21:16 | 25.28578 | 55.26637 | 3758 ft | 195 kts | 239° |
| 2026-05-07 21:16 | 25.27903 | 55.25328 | 4175 ft | 198 kts | 244° |
| 2026-05-07 21:17 | 25.27298 | 55.23936 | 4589 ft | 202 kts | 244° |
| 2026-05-07 21:17 | 25.26667 | 55.22534 | 5018 ft | 205 kts | 244° |
| 2026-05-07 21:17 | 25.26039 | 55.21111 | 5403 ft | 213 kts | 244° |
| 2026-05-07 21:17 | 25.25365 | 55.19558 | 5556 ft | 233 kts | 245° |
| 2026-05-07 21:18 | 25.24567 | 55.17942 | 5771 ft | 247 kts | 230° |
| 2026-05-07 21:18 | 25.23132 | 55.16846 | 6118 ft | 258 kts | 195° |
| 2026-05-07 21:18 | 25.21334 | 55.16716 | 6577 ft | 261 kts | 177° |
| 2026-05-07 21:18 | 25.19528 | 55.17012 | 7033 ft | 267 kts | 159° |
| 2026-05-07 21:19 | 25.18003 | 55.18203 | 7428 ft | 280 kts | 128° |
| 2026-05-07 21:19 | 25.17000 | 55.20096 | 7729 ft | 291 kts | 117° |
| 2026-05-07 21:19 | 25.16063 | 55.22106 | 8258 ft | 298 kts | 118° |
| 2026-05-07 21:19 | 25.15102 | 55.24143 | 8895 ft | 301 kts | 118° |
| 2026-05-07 21:20 | 25.14127 | 55.26188 | 9565 ft | 303 kts | 118° |
| 2026-05-07 21:20 | 25.13141 | 55.28251 | 10182 ft | 305 kts | 118° |
| 2026-05-07 21:20 | 25.12147 | 55.30324 | 10878 ft | 305 kts | 118° |
| 2026-05-07 21:20 | 25.11152 | 55.32391 | 11668 ft | 305 kts | 118° |
| 2026-05-07 21:21 | 25.10199 | 55.34469 | 12517 ft | 304 kts | 115° |
| 2026-05-07 21:21 | 25.09332 | 55.36588 | 13341 ft | 304 kts | 114° |
| 2026-05-07 21:21 | 25.08468 | 55.38729 | 14085 ft | 307 kts | 114° |
| 2026-05-07 21:21 | 25.07586 | 55.40893 | 14775 ft | 311 kts | 114° |
| 2026-05-07 21:22 | 25.06703 | 55.43101 | 15323 ft | 322 kts | 113° |
| 2026-05-07 21:22 | 25.05796 | 55.45466 | 15516 ft | 346 kts | 112° |
| 2026-05-07 21:22 | 25.04833 | 55.47995 | 15678 ft | 369 kts | 112° |
| 2026-05-07 21:22 | 25.03810 | 55.50668 | 15836 ft | 390 kts | 112° |
| 2026-05-07 21:23 | 25.02726 | 55.53483 | 16209 ft | 403 kts | 113° |
| 2026-05-07 21:23 | 25.01598 | 55.56307 | 16709 ft | 412 kts | 116° |
| 2026-05-07 21:23 | 25.00171 | 55.59106 | 17355 ft | 417 kts | 121° |
| 2026-05-07 21:23 | 24.98645 | 55.61769 | 18043 ft | 420 kts | 122° |
| 2026-05-07 21:24 | 24.97074 | 55.64524 | 18634 ft | 424 kts | 121° |
| 2026-05-07 21:24 | 24.95533 | 55.67319 | 19186 ft | 429 kts | 121° |
| 2026-05-07 21:24 | 24.93995 | 55.70148 | 19735 ft | 433 kts | 122° |
| 2026-05-07 21:24 | 24.92329 | 55.72872 | 20260 ft | 437 kts | 126° |
| 2026-05-07 21:25 | 24.90541 | 55.75517 | 20776 ft | 441 kts | 127° |
| 2026-05-07 21:25 | 24.88669 | 55.78226 | 21318 ft | 445 kts | 127° |
| 2026-05-07 21:25 | 24.86810 | 55.80965 | 21840 ft | 449 kts | 127° |
| 2026-05-07 21:25 | 24.84949 | 55.83758 | 22362 ft | 454 kts | 127° |
| 2026-05-07 21:26 | 24.83079 | 55.86573 | 22843 ft | 458 kts | 127° |
| 2026-05-07 21:26 | 24.81170 | 55.89387 | 23317 ft | 458 kts | 130° |
| 2026-05-07 21:26 | 24.78866 | 55.91743 | 23545 ft | 463 kts | 149° |
| 2026-05-07 21:26 | 24.75911 | 55.93232 | 23914 ft | 465 kts | 164° |
| 2026-05-07 21:27 | 24.72760 | 55.93842 | 24359 ft | 464 kts | 180° |
| 2026-05-07 21:27 | 24.69513 | 55.93691 | 24811 ft | 464 kts | 185° |
| 2026-05-07 21:27 | 24.66265 | 55.93491 | 25222 ft | 468 kts | 184° |
| 2026-05-07 21:27 | 24.63029 | 55.93190 | 25538 ft | 469 kts | 192° |
| 2026-05-07 21:28 | 24.59904 | 55.92159 | 25841 ft | 471 kts | 204° |
| 2026-05-07 21:28 | 24.57008 | 55.90460 | 26264 ft | 471 kts | 215° |
| 2026-05-07 21:28 | 24.54471 | 55.88212 | 26674 ft | 470 kts | 223° |
| 2026-05-07 21:28 | 24.52045 | 55.85795 | 27041 ft | 472 kts | 223° |
| 2026-05-07 21:29 | 24.49604 | 55.83368 | 27435 ft | 475 kts | 223° |
| 2026-05-07 21:29 | 24.47133 | 55.80945 | 27812 ft | 477 kts | 223° |
| 2026-05-07 21:29 | 24.44639 | 55.78533 | 28186 ft | 479 kts | 222° |
| 2026-05-07 21:29 | 24.42131 | 55.76126 | 28552 ft | 481 kts | 222° |
| 2026-05-07 21:30 | 24.39639 | 55.73741 | 28889 ft | 482 kts | 222° |
| 2026-05-07 21:30 | 24.37073 | 55.71284 | 29227 ft | 484 kts | 223° |
| 2026-05-07 21:30 | 24.34535 | 55.68840 | 29566 ft | 485 kts | 223° |
| 2026-05-07 21:30 | 24.32042 | 55.66432 | 30001 ft | 484 kts | 223° |
| 2026-05-07 21:31 | 24.29466 | 55.63995 | 30424 ft | 482 kts | 219° |
| 2026-05-07 21:31 | 24.26745 | 55.61967 | 30809 ft | 483 kts | 212° |
| 2026-05-07 21:31 | 24.23757 | 55.60271 | 31197 ft | 482 kts | 206° |
| 2026-05-07 21:31 | 24.20637 | 55.58910 | 31586 ft | 483 kts | 199° |
| 2026-05-07 21:32 | 24.17395 | 55.57927 | 31948 ft | 483 kts | 197° |
| 2026-05-07 21:32 | 24.14145 | 55.57018 | 32345 ft | 482 kts | 196° |
| 2026-05-07 21:32 | 24.10905 | 55.56109 | 32738 ft | 480 kts | 197° |
| 2026-05-07 21:32 | 24.07678 | 55.55179 | 33134 ft | 479 kts | 197° |
| 2026-05-07 21:33 | 24.04468 | 55.54234 | 33512 ft | 477 kts | 197° |
| 2026-05-07 21:33 | 24.01269 | 55.53285 | 33882 ft | 476 kts | 197° |
| 2026-05-07 21:33 | 23.98079 | 55.52335 | 34186 ft | 475 kts | 197° |
| 2026-05-07 21:33 | 23.94890 | 55.51384 | 34487 ft | 474 kts | 197° |
| 2026-05-07 21:34 | 23.91711 | 55.50437 | 34762 ft | 474 kts | 197° |
| 2026-05-07 21:34 | 23.88517 | 55.49486 | 34806 ft | 478 kts | 197° |
| 2026-05-07 21:34 | 23.82101 | 55.47579 | 34845 ft | 475 kts | 197° |
| 2026-05-07 21:35 | 23.75761 | 55.45690 | 34847 ft | 471 kts | 197° |
| 2026-05-07 21:35 | 23.69444 | 55.43807 | 34844 ft | 469 kts | 197° |
| 2026-05-07 21:36 | 23.63155 | 55.41934 | 34855 ft | 469 kts | 197° |
| 2026-05-07 21:36 | 23.56841 | 55.40060 | 34838 ft | 471 kts | 195° |
| 2026-05-07 21:37 | 23.50324 | 55.39357 | 34853 ft | 476 kts | 179° |
| 2026-05-07 21:37 | 23.43777 | 55.40587 | 34854 ft | 481 kts | 166° |
| 2026-05-07 21:38 | 23.37326 | 55.42639 | 34845 ft | 484 kts | 165° |
| 2026-05-07 21:38 | 23.30867 | 55.44739 | 34844 ft | 484 kts | 166° |
| 2026-05-07 21:39 | 23.24398 | 55.46803 | 34841 ft | 484 kts | 166° |
| 2026-05-07 21:39 | 23.17970 | 55.48832 | 34840 ft | 484 kts | 166° |
| 2026-05-07 21:40 | 23.11462 | 55.50884 | 34842 ft | 484 kts | 166° |
| 2026-05-07 21:40 | 23.05042 | 55.52908 | 34840 ft | 483 kts | 166° |
| 2026-05-07 21:41 | 22.98589 | 55.54910 | 34839 ft | 483 kts | 166° |
| 2026-05-07 21:41 | 22.92078 | 55.56889 | 34836 ft | 482 kts | 166° |
| 2026-05-07 21:42 | 22.85658 | 55.58842 | 34835 ft | 482 kts | 166° |
| 2026-05-07 21:42 | 22.79207 | 55.60809 | 34835 ft | 482 kts | 166° |
| 2026-05-07 21:43 | 22.72751 | 55.62778 | 34834 ft | 482 kts | 166° |
| 2026-05-07 21:43 | 22.66288 | 55.64747 | 34833 ft | 482 kts | 166° |
| 2026-05-07 21:44 | 22.59824 | 55.66715 | 34835 ft | 483 kts | 166° |
| 2026-05-07 21:44 | 22.53358 | 55.68698 | 34835 ft | 483 kts | 166° |
| 2026-05-07 21:45 | 22.46899 | 55.70679 | 34830 ft | 483 kts | 166° |
| 2026-05-07 21:45 | 22.40428 | 55.72660 | 34838 ft | 483 kts | 166° |
| 2026-05-07 21:46 | 22.33957 | 55.74639 | 34835 ft | 483 kts | 166° |
| 2026-05-07 21:46 | 22.27494 | 55.76592 | 34834 ft | 483 kts | 168° |
| 2026-05-07 21:47 | 22.20882 | 55.77710 | 34833 ft | 480 kts | 176° |
| 2026-05-07 21:47 | 22.14230 | 55.78319 | 34833 ft | 480 kts | 176° |
| 2026-05-07 21:48 | 22.07566 | 55.78949 | 34835 ft | 480 kts | 176° |
| 2026-05-07 21:48 | 22.00917 | 55.79611 | 34838 ft | 481 kts | 176° |
| 2026-05-07 21:49 | 21.94293 | 55.80280 | 34840 ft | 481 kts | 176° |
| 2026-05-07 21:49 | 21.87636 | 55.80951 | 34837 ft | 481 kts | 176° |
| 2026-05-07 21:50 | 21.80976 | 55.81620 | 34839 ft | 481 kts | 176° |
| 2026-05-07 21:50 | 21.74309 | 55.82288 | 34837 ft | 481 kts | 176° |
| 2026-05-07 21:51 | 21.67657 | 55.82952 | 34841 ft | 480 kts | 176° |
| 2026-05-07 21:51 | 21.61000 | 55.83603 | 34840 ft | 480 kts | 176° |
| 2026-05-07 21:52 | 21.54344 | 55.84251 | 34843 ft | 480 kts | 176° |
| 2026-05-07 21:52 | 21.47691 | 55.84901 | 34840 ft | 480 kts | 176° |
| 2026-05-07 21:53 | 21.41040 | 55.85550 | 34842 ft | 480 kts | 176° |
| 2026-05-07 21:53 | 21.34387 | 55.86199 | 34841 ft | 480 kts | 176° |
| 2026-05-07 21:54 | 21.28855 | 55.86739 | 34841 ft | 480 kts | 176° |
| 2026-05-07 21:54 | 21.22203 | 55.87383 | 34838 ft | 480 kts | 176° |
| 2026-05-07 21:55 | 21.15537 | 55.88023 | 34840 ft | 481 kts | 176° |
| 2026-05-07 21:55 | 21.08879 | 55.88662 | 34839 ft | 481 kts | 176° |
| 2026-05-07 21:56 | 21.02209 | 55.89302 | 34840 ft | 481 kts | 176° |
| 2026-05-07 21:56 | 20.95533 | 55.89943 | 34841 ft | 482 kts | 176° |
| 2026-05-07 21:57 | 20.88850 | 55.90584 | 34840 ft | 482 kts | 176° |
| 2026-05-07 21:57 | 20.82165 | 55.91230 | 34842 ft | 482 kts | 176° |
| 2026-05-07 21:58 | 20.75524 | 55.91885 | 34841 ft | 483 kts | 175° |
| 2026-05-07 21:58 | 20.68795 | 55.92548 | 34842 ft | 483 kts | 175° |
| 2026-05-07 21:59 | 20.62096 | 55.93206 | 34842 ft | 483 kts | 175° |
| 2026-05-07 21:59 | 20.55460 | 55.93856 | 34839 ft | 483 kts | 175° |
| 2026-05-07 22:00 | 20.48767 | 55.94511 | 34840 ft | 483 kts | 175° |
| 2026-05-07 22:00 | 20.42062 | 55.95167 | 34843 ft | 483 kts | 175° |
| 2026-05-07 22:01 | 20.35369 | 55.95822 | 34839 ft | 483 kts | 175° |
| 2026-05-07 22:01 | 20.28665 | 55.96474 | 34840 ft | 483 kts | 175° |
| 2026-05-07 22:02 | 20.21963 | 55.97111 | 34839 ft | 483 kts | 176° |
| 2026-05-07 22:02 | 20.15275 | 55.97745 | 34843 ft | 483 kts | 176° |
| 2026-05-07 22:03 | 20.08570 | 55.98376 | 34844 ft | 483 kts | 176° |
| 2026-05-07 22:03 | 20.01866 | 55.98619 | 34850 ft | 482 kts | 180° |
| 2026-05-07 22:04 | 19.95157 | 55.98742 | 34838 ft | 482 kts | 180° |
| 2026-05-07 22:04 | 19.88449 | 55.98883 | 34845 ft | 482 kts | 180° |
| 2026-05-07 22:05 | 19.81744 | 55.99044 | 34849 ft | 482 kts | 179° |
| 2026-05-07 22:05 | 19.75033 | 55.99209 | 34839 ft | 482 kts | 179° |
| 2026-05-07 22:06 | 19.68332 | 55.99372 | 34843 ft | 482 kts | 179° |
| 2026-05-07 22:06 | 19.61617 | 55.99534 | 34845 ft | 482 kts | 179° |
| 2026-05-07 22:07 | 19.54915 | 55.99648 | 34843 ft | 482 kts | 184° |
| 2026-05-07 22:07 | 19.48422 | 55.98223 | 34857 ft | 480 kts | 200° |
| 2026-05-07 22:08 | 19.42477 | 55.95040 | 34860 ft | 480 kts | 211° |
| 2026-05-07 22:08 | 19.36725 | 55.91435 | 34852 ft | 481 kts | 211° |
| 2026-05-07 22:09 | 19.30948 | 55.87869 | 34857 ft | 481 kts | 210° |
| 2026-05-07 22:09 | 19.25144 | 55.84344 | 34855 ft | 482 kts | 210° |
| 2026-05-07 22:10 | 19.19316 | 55.80820 | 34859 ft | 482 kts | 210° |
| 2026-05-07 22:10 | 19.13498 | 55.77300 | 34861 ft | 482 kts | 210° |
| 2026-05-07 22:11 | 19.07675 | 55.73777 | 34862 ft | 482 kts | 210° |
| 2026-05-07 22:11 | 19.01843 | 55.70257 | 34866 ft | 482 kts | 210° |
| 2026-05-07 22:12 | 18.96015 | 55.66754 | 34867 ft | 482 kts | 210° |
| 2026-05-07 22:12 | 18.90188 | 55.63253 | 34868 ft | 482 kts | 210° |
| 2026-05-07 22:13 | 18.84347 | 55.59744 | 34868 ft | 482 kts | 210° |
| 2026-05-07 22:13 | 18.78524 | 55.56248 | 34868 ft | 482 kts | 210° |
| 2026-05-07 22:14 | 18.72685 | 55.52746 | 34868 ft | 482 kts | 210° |
| 2026-05-07 22:14 | 18.66846 | 55.49246 | 34867 ft | 483 kts | 210° |
| 2026-05-07 22:15 | 18.61005 | 55.45748 | 34869 ft | 483 kts | 210° |
| 2026-05-07 22:15 | 18.55166 | 55.42254 | 34869 ft | 482 kts | 210° |
| 2026-05-07 22:16 | 18.49334 | 55.38766 | 34869 ft | 482 kts | 210° |
| 2026-05-07 22:16 | 18.43541 | 55.35304 | 34868 ft | 482 kts | 210° |
| 2026-05-07 22:17 | 18.37717 | 55.31826 | 34866 ft | 481 kts | 210° |
| 2026-05-07 22:17 | 18.31890 | 55.28350 | 34867 ft | 481 kts | 210° |
| 2026-05-07 22:18 | 18.23159 | 55.23141 | 34868 ft | 481 kts | 210° |
| 2026-05-07 22:19 | 18.17347 | 55.19676 | 34877 ft | 480 kts | 210° |
| 2026-05-07 22:19 | 18.11407 | 55.16456 | 34874 ft | 480 kts | 204° |
| 2026-05-07 22:20 | 18.05251 | 55.13720 | 34873 ft | 480 kts | 203° |
| 2026-05-07 22:20 | 17.99084 | 55.11001 | 34872 ft | 481 kts | 203° |
| 2026-05-07 22:21 | 17.92921 | 55.08253 | 34874 ft | 481 kts | 203° |
| 2026-05-07 22:21 | 17.86761 | 55.05491 | 34875 ft | 482 kts | 203° |
| 2026-05-07 22:22 | 17.80584 | 55.02722 | 34882 ft | 483 kts | 203° |
| 2026-05-07 22:22 | 17.74400 | 54.99952 | 34875 ft | 484 kts | 203° |
| 2026-05-07 22:23 | 17.68200 | 54.97179 | 34878 ft | 484 kts | 203° |
| 2026-05-07 22:23 | 17.62004 | 54.94410 | 34885 ft | 484 kts | 203° |
| 2026-05-07 22:24 | 17.55792 | 54.91635 | 34888 ft | 485 kts | 203° |
| 2026-05-07 22:24 | 17.49596 | 54.88870 | 34893 ft | 485 kts | 203° |
| 2026-05-07 22:25 | 17.43398 | 54.86106 | 34899 ft | 484 kts | 203° |
| 2026-05-07 22:25 | 17.37193 | 54.83340 | 34894 ft | 484 kts | 203° |
| 2026-05-07 22:26 | 17.31001 | 54.80582 | 34895 ft | 484 kts | 203° |
| 2026-05-07 22:26 | 17.24942 | 54.77529 | 34892 ft | 484 kts | 212° |
| 2026-05-07 22:27 | 17.19288 | 54.73715 | 34894 ft | 483 kts | 213° |
| 2026-05-07 22:27 | 17.13656 | 54.69883 | 34884 ft | 483 kts | 213° |
| 2026-05-07 22:28 | 17.08000 | 54.66084 | 34876 ft | 483 kts | 213° |
| 2026-05-07 22:28 | 17.02324 | 54.62294 | 34872 ft | 484 kts | 212° |
| 2026-05-07 22:29 | 16.96653 | 54.58509 | 34866 ft | 484 kts | 212° |
| 2026-05-07 22:29 | 16.91017 | 54.54747 | 34857 ft | 484 kts | 212° |
| 2026-05-07 22:30 | 16.85339 | 54.50960 | 34849 ft | 484 kts | 212° |
| 2026-05-07 22:30 | 16.79656 | 54.47170 | 34840 ft | 485 kts | 213° |
| 2026-05-07 22:31 | 16.73937 | 54.43356 | 34837 ft | 485 kts | 213° |
| 2026-05-07 22:31 | 16.68288 | 54.39591 | 34836 ft | 485 kts | 213° |
| 2026-05-07 22:32 | 16.62558 | 54.35775 | 34837 ft | 485 kts | 213° |
| 2026-05-07 22:32 | 16.56904 | 54.32013 | 34839 ft | 485 kts | 213° |
| 2026-05-07 22:33 | 16.51217 | 54.28231 | 34836 ft | 485 kts | 213° |
| 2026-05-07 22:33 | 16.45528 | 54.24451 | 34838 ft | 485 kts | 213° |
| 2026-05-07 22:34 | 16.39841 | 54.20675 | 34841 ft | 484 kts | 213° |
| 2026-05-07 22:34 | 16.34159 | 54.16904 | 34839 ft | 484 kts | 213° |
| 2026-05-07 22:35 | 16.28481 | 54.13139 | 34845 ft | 484 kts | 213° |
| 2026-05-07 22:35 | 16.22810 | 54.09381 | 34847 ft | 484 kts | 213° |
| 2026-05-07 22:36 | 16.17128 | 54.05619 | 34846 ft | 483 kts | 213° |
| 2026-05-07 22:36 | 16.11466 | 54.01872 | 34849 ft | 483 kts | 213° |
| 2026-05-07 22:37 | 16.05796 | 53.98122 | 34854 ft | 483 kts | 213° |
| 2026-05-07 22:37 | 16.00130 | 53.94377 | 34857 ft | 483 kts | 213° |
| 2026-05-07 22:38 | 15.94460 | 53.90632 | 34854 ft | 483 kts | 213° |
| 2026-05-07 22:38 | 15.88780 | 53.86883 | 34856 ft | 484 kts | 213° |
| 2026-05-07 22:39 | 15.83103 | 53.83111 | 34858 ft | 485 kts | 213° |
| 2026-05-07 22:39 | 15.77439 | 53.79316 | 34859 ft | 485 kts | 213° |
| 2026-05-07 22:40 | 15.72717 | 53.76156 | 34860 ft | 486 kts | 213° |
| 2026-05-07 22:40 | 15.67034 | 53.72359 | 34854 ft | 486 kts | 213° |
| 2026-05-07 22:41 | 15.61341 | 53.68560 | 34858 ft | 486 kts | 213° |
| 2026-05-07 22:41 | 15.55653 | 53.64766 | 34854 ft | 487 kts | 213° |
| 2026-05-07 22:42 | 15.49952 | 53.60966 | 34847 ft | 487 kts | 213° |
| 2026-05-07 22:42 | 15.44251 | 53.57169 | 34852 ft | 487 kts | 213° |
| 2026-05-07 22:43 | 15.38524 | 53.53432 | 34853 ft | 487 kts | 212° |
| 2026-05-07 22:43 | 15.32746 | 53.49753 | 34853 ft | 487 kts | 212° |
| 2026-05-07 22:44 | 15.26978 | 53.46079 | 34857 ft | 487 kts | 212° |
| 2026-05-07 22:44 | 15.21208 | 53.42390 | 34852 ft | 487 kts | 212° |
| 2026-05-07 22:45 | 15.15444 | 53.38702 | 34852 ft | 487 kts | 212° |
| 2026-05-07 22:45 | 15.09677 | 53.35014 | 34849 ft | 487 kts | 212° |
| 2026-05-07 22:46 | 15.03913 | 53.31331 | 34851 ft | 487 kts | 212° |
| 2026-05-07 22:46 | 14.98149 | 53.27651 | 34853 ft | 487 kts | 212° |
| 2026-05-07 22:47 | 14.92390 | 53.23976 | 34851 ft | 487 kts | 212° |
| 2026-05-07 22:47 | 14.86626 | 53.20301 | 34852 ft | 487 kts | 212° |
| 2026-05-07 22:48 | 14.80862 | 53.16627 | 34853 ft | 487 kts | 212° |
| 2026-05-07 22:48 | 14.75135 | 53.12979 | 34853 ft | 487 kts | 212° |
| 2026-05-07 22:49 | 14.69398 | 53.09257 | 34851 ft | 487 kts | 216° |
| 2026-05-07 22:49 | 14.64533 | 53.04414 | 34865 ft | 486 kts | 231° |
| 2026-05-07 22:50 | 14.60877 | 52.98544 | 34855 ft | 486 kts | 240° |
| 2026-05-07 22:50 | 14.57521 | 52.92476 | 34849 ft | 487 kts | 240° |
| 2026-05-07 22:51 | 14.54144 | 52.86420 | 34851 ft | 487 kts | 239° |
| 2026-05-07 22:51 | 14.50729 | 52.80386 | 34852 ft | 487 kts | 239° |
| 2026-05-07 22:52 | 14.47291 | 52.74349 | 34852 ft | 487 kts | 239° |
| 2026-05-07 22:52 | 14.43855 | 52.68322 | 34853 ft | 488 kts | 239° |
| 2026-05-07 22:53 | 14.40413 | 52.62284 | 34853 ft | 488 kts | 239° |
| 2026-05-07 22:53 | 14.36969 | 52.56246 | 34852 ft | 489 kts | 239° |
| 2026-05-07 22:54 | 14.33540 | 52.50237 | 34853 ft | 489 kts | 239° |
| 2026-05-07 22:54 | 14.30066 | 52.44155 | 34852 ft | 490 kts | 239° |
| 2026-05-07 22:55 | 14.26607 | 52.38103 | 34852 ft | 490 kts | 239° |
| 2026-05-07 22:55 | 14.23164 | 52.32085 | 34852 ft | 490 kts | 239° |
| 2026-05-07 22:56 | 14.19702 | 52.26037 | 34850 ft | 490 kts | 239° |
| 2026-05-07 22:56 | 14.16219 | 52.19958 | 34850 ft | 490 kts | 239° |
| 2026-05-07 22:57 | 14.12754 | 52.13915 | 34846 ft | 490 kts | 239° |
| 2026-05-07 22:57 | 14.09309 | 52.07910 | 34846 ft | 490 kts | 239° |
| 2026-05-07 22:58 | 14.05845 | 52.01876 | 34845 ft | 489 kts | 239° |
| 2026-05-07 22:58 | 14.02380 | 51.95845 | 34848 ft | 489 kts | 239° |
| 2026-05-07 22:59 | 13.98910 | 51.89811 | 34846 ft | 489 kts | 239° |
| 2026-05-07 22:59 | 13.95443 | 51.83784 | 34846 ft | 489 kts | 239° |
| 2026-05-07 23:00 | 13.91974 | 51.77760 | 34846 ft | 489 kts | 239° |
| 2026-05-07 23:00 | 13.88502 | 51.71735 | 34846 ft | 489 kts | 239° |
| 2026-05-07 23:01 | 13.85031 | 51.65716 | 34845 ft | 489 kts | 239° |
| 2026-05-07 23:01 | 13.81556 | 51.59693 | 34843 ft | 489 kts | 239° |
| 2026-05-07 23:02 | 13.78083 | 51.53677 | 34843 ft | 489 kts | 239° |
| 2026-05-07 23:02 | 13.74606 | 51.47660 | 34840 ft | 489 kts | 239° |
| 2026-05-07 23:03 | 13.71180 | 51.41628 | 34839 ft | 489 kts | 239° |
| 2026-05-07 23:03 | 13.67793 | 51.35565 | 34835 ft | 489 kts | 239° |
| 2026-05-07 23:04 | 13.64400 | 51.29501 | 34833 ft | 489 kts | 239° |
| 2026-05-07 23:04 | 13.61004 | 51.23455 | 34834 ft | 489 kts | 239° |
| 2026-05-07 23:05 | 13.57599 | 51.17404 | 34834 ft | 489 kts | 239° |
| 2026-05-07 23:05 | 13.54189 | 51.11347 | 34834 ft | 489 kts | 239° |
| 2026-05-07 23:06 | 13.50783 | 51.05302 | 34829 ft | 489 kts | 239° |
| 2026-05-07 23:06 | 13.47370 | 50.99248 | 34828 ft | 490 kts | 239° |
| 2026-05-07 23:07 | 13.43952 | 50.93192 | 34831 ft | 490 kts | 239° |
| 2026-05-07 23:07 | 13.40537 | 50.87142 | 34826 ft | 490 kts | 239° |
| 2026-05-07 23:08 | 13.37125 | 50.81101 | 34823 ft | 490 kts | 239° |
| 2026-05-07 23:08 | 13.33723 | 50.75085 | 34824 ft | 490 kts | 239° |
| 2026-05-07 23:09 | 13.30308 | 50.69047 | 34824 ft | 490 kts | 239° |
| 2026-05-07 23:09 | 13.26884 | 50.62999 | 34821 ft | 490 kts | 239° |
| 2026-05-07 23:10 | 13.23462 | 50.56958 | 34818 ft | 490 kts | 239° |
| 2026-05-07 23:10 | 13.20039 | 50.50919 | 34816 ft | 489 kts | 239° |
| 2026-05-07 23:11 | 13.16607 | 50.44894 | 34818 ft | 489 kts | 239° |
| 2026-05-07 23:11 | 13.13163 | 50.38866 | 34817 ft | 489 kts | 239° |
| 2026-05-07 23:12 | 13.09724 | 50.32845 | 34816 ft | 489 kts | 239° |
| 2026-05-07 23:12 | 13.06290 | 50.26836 | 34816 ft | 489 kts | 239° |
| 2026-05-07 23:13 | 13.02857 | 50.20828 | 34816 ft | 488 kts | 239° |
| 2026-05-07 23:13 | 12.99413 | 50.14808 | 34814 ft | 488 kts | 239° |
| 2026-05-07 23:14 | 12.95977 | 50.08804 | 34814 ft | 488 kts | 239° |
| 2026-05-07 23:14 | 12.92537 | 50.02798 | 34815 ft | 488 kts | 239° |
| 2026-05-07 23:15 | 12.89099 | 49.96799 | 34814 ft | 488 kts | 239° |
| 2026-05-07 23:15 | 12.85656 | 49.90797 | 34814 ft | 488 kts | 239° |
| 2026-05-07 23:16 | 12.82212 | 49.84796 | 34815 ft | 488 kts | 239° |
| 2026-05-07 23:16 | 12.78769 | 49.78801 | 34809 ft | 488 kts | 239° |
| 2026-05-07 23:17 | 12.75324 | 49.72806 | 34811 ft | 488 kts | 239° |
| 2026-05-07 23:17 | 12.71877 | 49.66812 | 34816 ft | 488 kts | 239° |
| 2026-05-07 23:18 | 12.68433 | 49.60826 | 34811 ft | 488 kts | 239° |
| 2026-05-07 23:18 | 12.64999 | 49.54862 | 34812 ft | 488 kts | 239° |
| 2026-05-07 23:19 | 12.61552 | 49.48880 | 34812 ft | 488 kts | 239° |
| 2026-05-07 23:19 | 12.58097 | 49.42888 | 34812 ft | 488 kts | 239° |
| 2026-05-07 23:20 | 12.54648 | 49.36911 | 34810 ft | 488 kts | 239° |
| 2026-05-07 23:20 | 12.51193 | 49.30926 | 34813 ft | 488 kts | 239° |
| 2026-05-07 23:21 | 12.47742 | 49.24952 | 34815 ft | 488 kts | 238° |
| 2026-05-07 23:21 | 12.44290 | 49.18981 | 34813 ft | 488 kts | 238° |
| 2026-05-07 23:22 | 12.40836 | 49.13010 | 34813 ft | 488 kts | 238° |
| 2026-05-07 23:22 | 12.37380 | 49.07039 | 34809 ft | 488 kts | 238° |
| 2026-05-07 23:23 | 12.33927 | 49.01077 | 34812 ft | 488 kts | 238° |
| 2026-05-07 23:23 | 12.30466 | 48.95104 | 34811 ft | 487 kts | 238° |
| 2026-05-07 23:24 | 12.27008 | 48.89142 | 34811 ft | 487 kts | 238° |
| 2026-05-07 23:24 | 12.23570 | 48.83217 | 34815 ft | 487 kts | 238° |
| 2026-05-07 23:25 | 12.20089 | 48.77221 | 34811 ft | 488 kts | 238° |
| 2026-05-07 23:25 | 12.16646 | 48.71295 | 34810 ft | 488 kts | 238° |
| 2026-05-07 23:26 | 12.13183 | 48.65339 | 34813 ft | 488 kts | 238° |
| 2026-05-07 23:26 | 12.10278 | 48.60344 | 34810 ft | 488 kts | 238° |
| 2026-05-07 23:27 | 12.04516 | 48.50442 | 34812 ft | 488 kts | 239° |
| 2026-05-07 23:27 | 12.01102 | 48.44453 | 34812 ft | 488 kts | 239° |
| 2026-05-07 23:28 | 11.97721 | 48.38455 | 34812 ft | 487 kts | 239° |
| 2026-05-07 23:28 | 11.94889 | 48.33440 | 34811 ft | 487 kts | 239° |
| 2026-05-07 23:29 | 11.91516 | 48.27487 | 34812 ft | 487 kts | 239° |
| 2026-05-07 23:29 | 11.88126 | 48.21513 | 34813 ft | 486 kts | 239° |
| 2026-05-07 23:30 | 11.84736 | 48.15545 | 34811 ft | 486 kts | 239° |
| 2026-05-07 23:30 | 11.81351 | 48.09587 | 34805 ft | 485 kts | 239° |
| 2026-05-07 23:31 | 11.77964 | 48.03629 | 34805 ft | 484 kts | 239° |
| 2026-05-07 23:31 | 11.74585 | 47.97690 | 34808 ft | 484 kts | 239° |
| 2026-05-07 23:32 | 11.71204 | 47.91750 | 34809 ft | 484 kts | 239° |
| 2026-05-07 23:32 | 11.67825 | 47.85817 | 34806 ft | 483 kts | 239° |
| 2026-05-07 23:33 | 11.64449 | 47.79893 | 34806 ft | 483 kts | 239° |
| 2026-05-07 23:33 | 11.61069 | 47.73965 | 34807 ft | 483 kts | 239° |
| 2026-05-07 23:34 | 11.57690 | 47.68042 | 34806 ft | 483 kts | 239° |
| 2026-05-07 23:34 | 11.54315 | 47.62130 | 34805 ft | 483 kts | 239° |
| 2026-05-07 23:35 | 11.50932 | 47.56208 | 34803 ft | 483 kts | 239° |
| 2026-05-07 23:35 | 11.47554 | 47.50298 | 34807 ft | 483 kts | 239° |
| 2026-05-07 23:36 | 11.44192 | 47.44420 | 34808 ft | 483 kts | 239° |
| 2026-05-07 23:36 | 11.40788 | 47.38469 | 34805 ft | 483 kts | 239° |
| 2026-05-07 23:37 | 11.37400 | 47.32551 | 34805 ft | 483 kts | 239° |
| 2026-05-07 23:37 | 11.34033 | 47.26671 | 34806 ft | 484 kts | 239° |
| 2026-05-07 23:38 | 11.30618 | 47.20708 | 34805 ft | 484 kts | 239° |
| 2026-05-07 23:38 | 11.27221 | 47.14775 | 34807 ft | 485 kts | 239° |
| 2026-05-07 23:39 | 11.23840 | 47.08873 | 34809 ft | 486 kts | 239° |
| 2026-05-07 23:39 | 11.20427 | 47.02919 | 34808 ft | 487 kts | 239° |
| 2026-05-07 23:40 | 11.16992 | 46.96931 | 34805 ft | 487 kts | 239° |
| 2026-05-07 23:40 | 11.13592 | 46.91007 | 34805 ft | 488 kts | 239° |
| 2026-05-07 23:41 | 11.10169 | 46.85048 | 34804 ft | 488 kts | 239° |
| 2026-05-07 23:41 | 11.06739 | 46.79079 | 34801 ft | 488 kts | 239° |
| 2026-05-07 23:42 | 11.03318 | 46.73127 | 34802 ft | 488 kts | 239° |
| 2026-05-07 23:42 | 10.99890 | 46.67169 | 34799 ft | 487 kts | 239° |
| 2026-05-07 23:43 | 10.96464 | 46.61217 | 34800 ft | 487 kts | 239° |
| 2026-05-07 23:43 | 10.93044 | 46.55277 | 34796 ft | 487 kts | 239° |
| 2026-05-07 23:44 | 10.89619 | 46.49335 | 34795 ft | 486 kts | 239° |
| 2026-05-07 23:44 | 10.86202 | 46.43407 | 34799 ft | 486 kts | 239° |
| 2026-05-07 23:45 | 10.82781 | 46.37474 | 34800 ft | 486 kts | 239° |
| 2026-05-07 23:45 | 10.79362 | 46.31544 | 34808 ft | 486 kts | 239° |
| 2026-05-07 23:46 | 10.75984 | 46.25595 | 34807 ft | 486 kts | 239° |
| 2026-05-07 23:46 | 10.72618 | 46.19631 | 34814 ft | 486 kts | 239° |
| 2026-05-07 23:47 | 10.69250 | 46.13674 | 34816 ft | 486 kts | 239° |
| 2026-05-07 23:47 | 10.65878 | 46.07722 | 34822 ft | 486 kts | 239° |
| 2026-05-07 23:48 | 10.62503 | 46.01773 | 34822 ft | 486 kts | 239° |
| 2026-05-07 23:48 | 10.59125 | 45.95822 | 34822 ft | 486 kts | 239° |
| 2026-05-07 23:49 | 10.55747 | 45.89872 | 34825 ft | 486 kts | 239° |
| 2026-05-07 23:49 | 10.52387 | 45.83959 | 34821 ft | 486 kts | 239° |
| 2026-05-07 23:50 | 10.49001 | 45.78003 | 34819 ft | 486 kts | 239° |
| 2026-05-07 23:50 | 10.45622 | 45.72062 | 34822 ft | 486 kts | 239° |
| 2026-05-07 23:51 | 10.42235 | 45.66110 | 34823 ft | 486 kts | 239° |
| 2026-05-07 23:51 | 10.38854 | 45.60172 | 34823 ft | 486 kts | 239° |
| 2026-05-07 23:52 | 10.35467 | 45.54227 | 34824 ft | 486 kts | 239° |
| 2026-05-07 23:52 | 10.32081 | 45.48285 | 34827 ft | 486 kts | 239° |
| 2026-05-07 23:53 | 10.28691 | 45.42342 | 34838 ft | 486 kts | 239° |
| 2026-05-07 23:53 | 10.25305 | 45.36408 | 34842 ft | 486 kts | 239° |
| 2026-05-07 23:54 | 10.21914 | 45.30469 | 34851 ft | 486 kts | 239° |
| 2026-05-07 23:54 | 10.18522 | 45.24530 | 34860 ft | 486 kts | 239° |
| 2026-05-07 23:55 | 10.15133 | 45.18601 | 34867 ft | 486 kts | 239° |
| 2026-05-07 23:55 | 10.11741 | 45.12669 | 34870 ft | 486 kts | 239° |
| 2026-05-07 23:56 | 10.08347 | 45.06736 | 34880 ft | 486 kts | 239° |
| 2026-05-07 23:56 | 10.04954 | 45.00808 | 34885 ft | 485 kts | 239° |
| 2026-05-07 23:57 | 10.01566 | 44.94892 | 34886 ft | 485 kts | 239° |
| 2026-05-07 23:57 | 9.98180 | 44.88983 | 34891 ft | 485 kts | 239° |
| 2026-05-07 23:58 | 9.94784 | 44.83059 | 34896 ft | 485 kts | 239° |
| 2026-05-07 23:58 | 9.91398 | 44.77156 | 34895 ft | 484 kts | 239° |
| 2026-05-07 23:59 | 9.88008 | 44.71249 | 34884 ft | 484 kts | 239° |
| 2026-05-07 23:59 | 9.84618 | 44.65344 | 34900 ft | 484 kts | 239° |
| 2026-05-08 00:00 | 9.81250 | 44.59483 | 34903 ft | 484 kts | 239° |
| 2026-05-08 00:00 | 9.77861 | 44.53586 | 34903 ft | 485 kts | 239° |
| 2026-05-08 00:01 | 9.74464 | 44.47678 | 34908 ft | 485 kts | 239° |
| 2026-05-08 00:01 | 9.71063 | 44.41767 | 34909 ft | 486 kts | 239° |
| 2026-05-08 00:02 | 9.67655 | 44.35846 | 34909 ft | 486 kts | 239° |
| 2026-05-08 00:02 | 9.64253 | 44.29937 | 34914 ft | 486 kts | 239° |
| 2026-05-08 00:03 | 9.60838 | 44.24011 | 34919 ft | 487 kts | 239° |
| 2026-05-08 00:03 | 9.57426 | 44.18090 | 34921 ft | 487 kts | 239° |
| 2026-05-08 00:04 | 9.54013 | 44.12171 | 34923 ft | 487 kts | 239° |
| 2026-05-08 00:04 | 9.50257 | 44.06485 | 34930 ft | 486 kts | 231° |
| 2026-05-08 00:05 | 9.45976 | 44.01190 | 34944 ft | 486 kts | 230° |
| 2026-05-08 00:05 | 9.41682 | 43.95895 | 34936 ft | 486 kts | 230° |
| 2026-05-08 00:06 | 9.37427 | 43.90584 | 34941 ft | 486 kts | 231° |
| 2026-05-08 00:06 | 9.33179 | 43.85262 | 34943 ft | 486 kts | 231° |
| 2026-05-08 00:07 | 9.28927 | 43.79938 | 34944 ft | 486 kts | 231° |
| 2026-05-08 00:07 | 9.24671 | 43.74617 | 34948 ft | 486 kts | 230° |
| 2026-05-08 00:08 | 9.20394 | 43.69332 | 34955 ft | 486 kts | 230° |
| 2026-05-08 00:08 | 9.16101 | 43.64055 | 34956 ft | 486 kts | 230° |
| 2026-05-08 00:09 | 9.11807 | 43.58771 | 34958 ft | 485 kts | 230° |
| 2026-05-08 00:09 | 9.07523 | 43.53496 | 34956 ft | 485 kts | 230° |
| 2026-05-08 00:10 | 9.03268 | 43.48255 | 34958 ft | 485 kts | 230° |
| 2026-05-08 00:10 | 8.98987 | 43.42984 | 34959 ft | 485 kts | 230° |
| 2026-05-08 00:11 | 8.94698 | 43.37706 | 34962 ft | 486 kts | 230° |
| 2026-05-08 00:11 | 8.90409 | 43.32431 | 34962 ft | 486 kts | 230° |
| 2026-05-08 00:12 | 8.86108 | 43.27144 | 34960 ft | 486 kts | 230° |
| 2026-05-08 00:12 | 8.81814 | 43.21867 | 34953 ft | 486 kts | 230° |
| 2026-05-08 00:13 | 8.77509 | 43.16579 | 34956 ft | 487 kts | 230° |
| 2026-05-08 00:13 | 8.73212 | 43.11302 | 34951 ft | 487 kts | 230° |
| 2026-05-08 00:14 | 8.68904 | 43.06014 | 34949 ft | 487 kts | 230° |
| 2026-05-08 00:14 | 8.65321 | 43.01617 | 34950 ft | 487 kts | 230° |
| 2026-05-08 00:15 | 8.61009 | 42.96328 | 34948 ft | 487 kts | 230° |
| 2026-05-08 00:15 | 8.56700 | 42.91045 | 34948 ft | 487 kts | 230° |
| 2026-05-08 00:16 | 8.52383 | 42.85754 | 34945 ft | 487 kts | 230° |
| 2026-05-08 00:16 | 8.48073 | 42.80473 | 34946 ft | 487 kts | 230° |
| 2026-05-08 00:17 | 8.43762 | 42.75194 | 34938 ft | 487 kts | 230° |
| 2026-05-08 00:17 | 8.39449 | 42.69913 | 34939 ft | 487 kts | 230° |
| 2026-05-08 00:18 | 8.35157 | 42.64661 | 34941 ft | 487 kts | 230° |
| 2026-05-08 00:18 | 8.30845 | 42.59385 | 34936 ft | 487 kts | 230° |
| 2026-05-08 00:19 | 8.26532 | 42.54110 | 34937 ft | 487 kts | 230° |
| 2026-05-08 00:19 | 8.22221 | 42.48839 | 34935 ft | 487 kts | 230° |
| 2026-05-08 00:20 | 8.17904 | 42.43567 | 34930 ft | 487 kts | 230° |
| 2026-05-08 00:20 | 8.13583 | 42.38293 | 34929 ft | 487 kts | 230° |
| 2026-05-08 00:21 | 8.09260 | 42.33015 | 34925 ft | 487 kts | 230° |
| 2026-05-08 00:21 | 8.04944 | 42.27748 | 34919 ft | 487 kts | 230° |
| 2026-05-08 00:22 | 8.00622 | 42.22475 | 34919 ft | 488 kts | 230° |
| 2026-05-08 00:22 | 7.96294 | 42.17197 | 34915 ft | 488 kts | 230° |
| 2026-05-08 00:23 | 7.91968 | 42.11923 | 34915 ft | 488 kts | 230° |
| 2026-05-08 00:23 | 7.87642 | 42.06650 | 34912 ft | 488 kts | 230° |
| 2026-05-08 00:24 | 7.83316 | 42.01380 | 34916 ft | 488 kts | 230° |
| 2026-05-08 00:24 | 7.78986 | 41.96107 | 34911 ft | 488 kts | 230° |
| 2026-05-08 00:25 | 7.74654 | 41.90832 | 34906 ft | 488 kts | 230° |
| 2026-05-08 00:25 | 7.70319 | 41.85556 | 34911 ft | 488 kts | 230° |
| 2026-05-08 00:26 | 7.65977 | 41.80287 | 34913 ft | 488 kts | 230° |
| 2026-05-08 00:26 | 7.61628 | 41.75025 | 34910 ft | 489 kts | 230° |
| 2026-05-08 00:27 | 7.57280 | 41.69763 | 34913 ft | 489 kts | 230° |
| 2026-05-08 00:27 | 7.52931 | 41.64500 | 34916 ft | 489 kts | 230° |
| 2026-05-08 00:28 | 7.48585 | 41.59240 | 34915 ft | 488 kts | 230° |
| 2026-05-08 00:28 | 7.44233 | 41.53975 | 34918 ft | 488 kts | 230° |
| 2026-05-08 00:29 | 7.39911 | 41.48749 | 34921 ft | 488 kts | 230° |
| 2026-05-08 00:29 | 7.35566 | 41.43495 | 34918 ft | 488 kts | 230° |
| 2026-05-08 00:30 | 7.31222 | 41.38245 | 34920 ft | 488 kts | 231° |
| 2026-05-08 00:30 | 7.26873 | 41.32990 | 34926 ft | 488 kts | 231° |
| 2026-05-08 00:31 | 7.22537 | 41.27728 | 34927 ft | 488 kts | 231° |
| 2026-05-08 00:31 | 7.18269 | 41.22417 | 34936 ft | 488 kts | 232° |
| 2026-05-08 00:32 | 7.14009 | 41.17085 | 34936 ft | 488 kts | 232° |
| 2026-05-08 00:32 | 7.09741 | 41.11759 | 34939 ft | 489 kts | 232° |
| 2026-05-08 00:33 | 7.05471 | 41.06446 | 34947 ft | 489 kts | 231° |
| 2026-05-08 00:33 | 7.01190 | 41.01123 | 34947 ft | 489 kts | 231° |
| 2026-05-08 00:34 | 6.96918 | 40.95814 | 34956 ft | 488 kts | 231° |
| 2026-05-08 00:34 | 6.92639 | 40.90496 | 34959 ft | 488 kts | 231° |
| 2026-05-08 00:35 | 6.88338 | 40.85153 | 34963 ft | 488 kts | 231° |
| 2026-05-08 00:35 | 6.84059 | 40.79838 | 34964 ft | 488 kts | 231° |
| 2026-05-08 00:36 | 6.79808 | 40.74559 | 34963 ft | 489 kts | 231° |
| 2026-05-08 00:36 | 6.75529 | 40.69248 | 34966 ft | 489 kts | 231° |
| 2026-05-08 00:37 | 6.71249 | 40.63938 | 34962 ft | 489 kts | 231° |
| 2026-05-08 00:38 | 6.64827 | 40.55971 | 34948 ft | 489 kts | 231° |
| 2026-05-08 00:38 | 6.60542 | 40.50659 | 34962 ft | 489 kts | 231° |
| 2026-05-08 00:39 | 6.56252 | 40.45341 | 34938 ft | 489 kts | 231° |
| 2026-05-08 00:39 | 6.51969 | 40.40034 | 34951 ft | 489 kts | 231° |
| 2026-05-08 00:40 | 6.47680 | 40.34721 | 34953 ft | 489 kts | 231° |
| 2026-05-08 00:40 | 6.43396 | 40.29414 | 34949 ft | 489 kts | 231° |
| 2026-05-08 00:41 | 6.39115 | 40.24115 | 34947 ft | 488 kts | 231° |
| 2026-05-08 00:41 | 6.34828 | 40.18808 | 34947 ft | 488 kts | 231° |
| 2026-05-08 00:42 | 6.30546 | 40.13509 | 34928 ft | 488 kts | 231° |
| 2026-05-08 00:42 | 6.26265 | 40.08212 | 34946 ft | 488 kts | 231° |
| 2026-05-08 00:43 | 6.21950 | 40.02942 | 34948 ft | 488 kts | 229° |
| 2026-05-08 00:43 | 6.17347 | 39.97912 | 34952 ft | 488 kts | 227° |
| 2026-05-08 00:44 | 6.12698 | 39.92941 | 34952 ft | 489 kts | 227° |
| 2026-05-08 00:44 | 6.08063 | 39.87945 | 34956 ft | 489 kts | 227° |
| 2026-05-08 00:45 | 6.03439 | 39.82935 | 34955 ft | 489 kts | 227° |
| 2026-05-08 00:45 | 5.98846 | 39.77957 | 34964 ft | 489 kts | 227° |
| 2026-05-08 00:46 | 5.94226 | 39.72952 | 34948 ft | 489 kts | 227° |
| 2026-05-08 00:46 | 5.89606 | 39.67944 | 34973 ft | 489 kts | 228° |
| 2026-05-08 00:47 | 5.85202 | 39.62754 | 34969 ft | 488 kts | 231° |
| 2026-05-08 00:47 | 5.80888 | 39.57478 | 34974 ft | 488 kts | 230° |
| 2026-05-08 00:48 | 5.76548 | 39.52245 | 34975 ft | 488 kts | 230° |
| 2026-05-08 00:48 | 5.72180 | 39.47024 | 34975 ft | 488 kts | 230° |
| 2026-05-08 00:49 | 5.67815 | 39.41809 | 34982 ft | 488 kts | 230° |
| 2026-05-08 00:49 | 5.63448 | 39.36590 | 34963 ft | 488 kts | 230° |
| 2026-05-08 00:50 | 5.59082 | 39.31378 | 34982 ft | 488 kts | 230° |
| 2026-05-08 00:50 | 5.54715 | 39.26166 | 34976 ft | 488 kts | 230° |
| 2026-05-08 00:51 | 5.50345 | 39.20948 | 34975 ft | 488 kts | 230° |
| 2026-05-08 00:51 | 5.45981 | 39.15739 | 34973 ft | 488 kts | 230° |
| 2026-05-08 00:52 | 5.41612 | 39.10526 | 34969 ft | 488 kts | 230° |
| 2026-05-08 00:52 | 5.37240 | 39.05310 | 34971 ft | 488 kts | 230° |
| 2026-05-08 00:53 | 5.32873 | 39.00100 | 34962 ft | 488 kts | 230° |
| 2026-05-08 00:53 | 5.28512 | 38.94899 | 34965 ft | 487 kts | 230° |
| 2026-05-08 00:54 | 5.24173 | 38.89727 | 34960 ft | 487 kts | 230° |
| 2026-05-08 00:54 | 5.19813 | 38.84530 | 34944 ft | 487 kts | 230° |
| 2026-05-08 00:55 | 5.15449 | 38.79329 | 34962 ft | 487 kts | 230° |
| 2026-05-08 00:55 | 5.11085 | 38.74131 | 34965 ft | 487 kts | 230° |
| 2026-05-08 00:56 | 5.06727 | 38.68939 | 34964 ft | 487 kts | 230° |
| 2026-05-08 00:56 | 5.02356 | 38.63734 | 34967 ft | 487 kts | 230° |
| 2026-05-08 00:57 | 4.97996 | 38.58543 | 34968 ft | 487 kts | 230° |
| 2026-05-08 00:57 | 4.93635 | 38.53353 | 34972 ft | 487 kts | 230° |
| 2026-05-08 00:58 | 4.89267 | 38.48154 | 34976 ft | 487 kts | 230° |
| 2026-05-08 00:58 | 4.84904 | 38.42964 | 34972 ft | 487 kts | 230° |
| 2026-05-08 00:59 | 4.80565 | 38.37803 | 34976 ft | 487 kts | 230° |
| 2026-05-08 00:59 | 4.76196 | 38.32607 | 34978 ft | 487 kts | 230° |
| 2026-05-08 01:00 | 4.71809 | 38.27391 | 34979 ft | 487 kts | 230° |
| 2026-05-08 01:00 | 4.67469 | 38.22232 | 34974 ft | 486 kts | 230° |
| 2026-05-08 01:01 | 4.63113 | 38.17055 | 34977 ft | 486 kts | 230° |
| 2026-05-08 01:01 | 4.58759 | 38.11881 | 34971 ft | 485 kts | 230° |
| 2026-05-08 01:02 | 4.54414 | 38.06720 | 34971 ft | 484 kts | 230° |
| 2026-05-08 01:02 | 4.50771 | 38.02393 | 34968 ft | 484 kts | 230° |
| 2026-05-08 01:03 | 4.46429 | 37.97237 | 34964 ft | 484 kts | 230° |
| 2026-05-08 01:03 | 4.42080 | 37.92073 | 34956 ft | 485 kts | 230° |
| 2026-05-08 01:04 | 4.37734 | 37.86913 | 34949 ft | 485 kts | 230° |
| 2026-05-08 01:04 | 4.33408 | 37.81779 | 34940 ft | 485 kts | 230° |
| 2026-05-08 01:05 | 4.29053 | 37.76611 | 34934 ft | 486 kts | 230° |
| 2026-05-08 01:05 | 4.24669 | 37.71410 | 34928 ft | 486 kts | 230° |
| 2026-05-08 01:06 | 4.20329 | 37.66262 | 34924 ft | 486 kts | 230° |
| 2026-05-08 01:06 | 4.15968 | 37.61089 | 34921 ft | 486 kts | 230° |
| 2026-05-08 01:07 | 4.11606 | 37.55917 | 34909 ft | 486 kts | 230° |
| 2026-05-08 01:07 | 4.07249 | 37.50750 | 34909 ft | 485 kts | 230° |
| 2026-05-08 01:08 | 4.02893 | 37.45587 | 34897 ft | 485 kts | 230° |
| 2026-05-08 01:08 | 3.98910 | 37.40155 | 34895 ft | 484 kts | 239° |
| 2026-05-08 01:09 | 3.95847 | 37.34166 | 34891 ft | 484 kts | 244° |
| 2026-05-08 01:09 | 3.92924 | 37.28093 | 34890 ft | 484 kts | 244° |
| 2026-05-08 01:10 | 3.89976 | 37.22020 | 34881 ft | 485 kts | 244° |
| 2026-05-08 01:10 | 3.87007 | 37.15964 | 34881 ft | 485 kts | 244° |
| 2026-05-08 01:11 | 3.84022 | 37.09893 | 34865 ft | 485 kts | 244° |
| 2026-05-08 01:11 | 3.81039 | 37.03830 | 34875 ft | 485 kts | 244° |
| 2026-05-08 01:12 | 3.78057 | 36.97767 | 34876 ft | 485 kts | 244° |
| 2026-05-08 01:12 | 3.75084 | 36.91723 | 34875 ft | 484 kts | 244° |
| 2026-05-08 01:13 | 3.72106 | 36.85670 | 34859 ft | 483 kts | 244° |
| 2026-05-08 01:13 | 3.69136 | 36.79633 | 34873 ft | 483 kts | 244° |
| 2026-05-08 01:14 | 3.66172 | 36.73610 | 34873 ft | 483 kts | 244° |
| 2026-05-08 01:14 | 3.63199 | 36.67570 | 34870 ft | 483 kts | 244° |
| 2026-05-08 01:15 | 3.60247 | 36.61574 | 34869 ft | 483 kts | 244° |
| 2026-05-08 01:15 | 3.57281 | 36.55551 | 34865 ft | 483 kts | 244° |
| 2026-05-08 01:16 | 3.54309 | 36.49516 | 34859 ft | 483 kts | 244° |
| 2026-05-08 01:16 | 3.51336 | 36.43482 | 34854 ft | 483 kts | 244° |
| 2026-05-08 01:17 | 3.48370 | 36.37463 | 34853 ft | 482 kts | 244° |
| 2026-05-08 01:17 | 3.45403 | 36.31442 | 34843 ft | 482 kts | 244° |
| 2026-05-08 01:18 | 3.42441 | 36.25432 | 34845 ft | 481 kts | 244° |
| 2026-05-08 01:18 | 3.39485 | 36.19436 | 34822 ft | 480 kts | 244° |
| 2026-05-08 01:19 | 3.36533 | 36.13450 | 34826 ft | 480 kts | 244° |
| 2026-05-08 01:19 | 3.33584 | 36.07470 | 34835 ft | 479 kts | 244° |
| 2026-05-08 01:20 | 3.30641 | 36.01505 | 34843 ft | 478 kts | 244° |
| 2026-05-08 01:20 | 3.27696 | 35.95535 | 34842 ft | 478 kts | 244° |
| 2026-05-08 01:21 | 3.24753 | 35.89570 | 34840 ft | 478 kts | 244° |
| 2026-05-08 01:21 | 3.21812 | 35.83610 | 34844 ft | 478 kts | 244° |
| 2026-05-08 01:22 | 3.18870 | 35.77648 | 34830 ft | 478 kts | 244° |
| 2026-05-08 01:22 | 3.15920 | 35.71672 | 34833 ft | 479 kts | 244° |
| 2026-05-08 01:23 | 3.12960 | 35.65697 | 34837 ft | 480 kts | 242° |
| 2026-05-08 01:23 | 3.09270 | 35.60125 | 34839 ft | 481 kts | 231° |
| 2026-05-08 01:24 | 3.04688 | 35.55243 | 34840 ft | 482 kts | 224° |
| 2026-05-08 01:24 | 2.99819 | 35.50609 | 34846 ft | 483 kts | 224° |
| 2026-05-08 01:25 | 2.94963 | 35.45978 | 34840 ft | 483 kts | 224° |
| 2026-05-08 01:25 | 2.90140 | 35.41332 | 34850 ft | 482 kts | 224° |
| 2026-05-08 01:26 | 2.85308 | 35.36657 | 34883 ft | 482 kts | 224° |
| 2026-05-08 01:26 | 2.80523 | 35.32028 | 34886 ft | 481 kts | 224° |
| 2026-05-08 01:27 | 2.75680 | 35.27345 | 34892 ft | 481 kts | 224° |
| 2026-05-08 01:27 | 2.70905 | 35.22729 | 34898 ft | 481 kts | 224° |
| 2026-05-08 01:28 | 2.66066 | 35.18052 | 34891 ft | 481 kts | 224° |
| 2026-05-08 01:28 | 2.61284 | 35.13431 | 34911 ft | 481 kts | 224° |
| 2026-05-08 01:29 | 2.56440 | 35.08749 | 34922 ft | 481 kts | 224° |
| 2026-05-08 01:29 | 2.51621 | 35.04093 | 34934 ft | 482 kts | 224° |
| 2026-05-08 01:30 | 2.46805 | 34.99439 | 34947 ft | 482 kts | 224° |
| 2026-05-08 01:30 | 2.42194 | 34.94575 | 34961 ft | 481 kts | 229° |
| 2026-05-08 01:31 | 2.37859 | 34.89482 | 34962 ft | 482 kts | 230° |
| 2026-05-08 01:31 | 2.33519 | 34.84366 | 34953 ft | 483 kts | 230° |
| 2026-05-08 01:32 | 2.29151 | 34.79254 | 34953 ft | 483 kts | 230° |
| 2026-05-08 01:32 | 2.24772 | 34.74148 | 34972 ft | 484 kts | 229° |
| 2026-05-08 01:33 | 2.20396 | 34.69049 | 34973 ft | 484 kts | 229° |
| 2026-05-08 01:33 | 2.15999 | 34.63926 | 34966 ft | 485 kts | 229° |
| 2026-05-08 01:34 | 2.11604 | 34.58802 | 34949 ft | 486 kts | 229° |
| 2026-05-08 01:34 | 2.07202 | 34.53671 | 34963 ft | 486 kts | 229° |
| 2026-05-08 01:35 | 2.02824 | 34.48569 | 34964 ft | 487 kts | 229° |
| 2026-05-08 01:35 | 1.98385 | 34.43395 | 34959 ft | 487 kts | 229° |
| 2026-05-08 01:36 | 1.94007 | 34.38294 | 34955 ft | 487 kts | 229° |
| 2026-05-08 01:36 | 1.89594 | 34.33152 | 34950 ft | 487 kts | 229° |
| 2026-05-08 01:37 | 1.85158 | 34.27982 | 34937 ft | 487 kts | 229° |
| 2026-05-08 01:37 | 1.80657 | 34.22928 | 34931 ft | 487 kts | 226° |
| 2026-05-08 01:38 | 1.75963 | 34.18132 | 34950 ft | 487 kts | 225° |
| 2026-05-08 01:38 | 1.71193 | 34.13320 | 34950 ft | 487 kts | 225° |
| 2026-05-08 01:39 | 1.66453 | 34.08503 | 34948 ft | 487 kts | 225° |
| 2026-05-08 01:39 | 1.61715 | 34.03664 | 34950 ft | 487 kts | 225° |
| 2026-05-08 01:40 | 1.56987 | 33.98829 | 34953 ft | 486 kts | 225° |
| 2026-05-08 01:40 | 1.52259 | 33.93995 | 34935 ft | 486 kts | 225° |
| 2026-05-08 01:41 | 1.47533 | 33.89165 | 34953 ft | 486 kts | 225° |
| 2026-05-08 01:41 | 1.42802 | 33.84330 | 34949 ft | 486 kts | 225° |
| 2026-05-08 01:42 | 1.38071 | 33.79496 | 34946 ft | 486 kts | 225° |
| 2026-05-08 01:42 | 1.33333 | 33.74656 | 34949 ft | 486 kts | 225° |
| 2026-05-08 01:43 | 1.28611 | 33.69831 | 34953 ft | 486 kts | 225° |
| 2026-05-08 01:43 | 1.23888 | 33.65006 | 34945 ft | 485 kts | 225° |
| 2026-05-08 01:44 | 1.19170 | 33.60186 | 34945 ft | 485 kts | 225° |
| 2026-05-08 01:44 | 1.14454 | 33.55369 | 34945 ft | 484 kts | 225° |
| 2026-05-08 01:45 | 1.09753 | 33.50566 | 34945 ft | 483 kts | 225° |
| 2026-05-08 01:45 | 1.05847 | 33.46577 | 34947 ft | 483 kts | 225° |
| 2026-05-08 01:46 | 1.00388 | 33.41001 | 34947 ft | 483 kts | 225° |
| 2026-05-08 01:46 | 0.95697 | 33.36209 | 34944 ft | 483 kts | 225° |
| 2026-05-08 01:47 | 0.91763 | 33.32191 | 34951 ft | 483 kts | 225° |
| 2026-05-08 01:47 | 0.87061 | 33.27388 | 34951 ft | 483 kts | 225° |
| 2026-05-08 01:48 | 0.80600 | 33.19738 | 34950 ft | 483 kts | 246° |
| 2026-05-08 01:48 | 0.78777 | 33.13341 | 34959 ft | 483 kts | 255° |
| 2026-05-08 01:49 | 0.77022 | 33.06850 | 34959 ft | 485 kts | 254° |
| 2026-05-08 01:49 | 0.75098 | 33.00371 | 34957 ft | 487 kts | 249° |
| 2026-05-08 01:50 | 0.73540 | 32.97390 | 34967 ft | 486 kts | 236° |
| 2026-05-08 01:50 | 0.71595 | 32.94630 | 34961 ft | 487 kts | 234° |
| 2026-05-08 01:50 | 0.67613 | 32.89150 | 34965 ft | 488 kts | 234° |
| 2026-05-08 01:51 | 0.63712 | 32.83601 | 34960 ft | 488 kts | 235° |
| 2026-05-08 01:51 | 0.59859 | 32.78002 | 34963 ft | 489 kts | 235° |
| 2026-05-08 01:52 | 0.56010 | 32.72407 | 34963 ft | 489 kts | 235° |
| 2026-05-08 01:52 | 0.52151 | 32.66813 | 34960 ft | 489 kts | 235° |
| 2026-05-08 01:53 | 0.48294 | 32.61224 | 34964 ft | 488 kts | 235° |
| 2026-05-08 01:53 | 0.44441 | 32.55636 | 34964 ft | 488 kts | 235° |
| 2026-05-08 01:54 | 0.40602 | 32.50066 | 34941 ft | 478 kts | 235° |
| 2026-05-08 01:54 | 0.38753 | 32.47385 | 34944 ft | 462 kts | 235° |
| 2026-05-08 01:54 | 0.36955 | 32.44782 | 34948 ft | 446 kts | 233° |
| 2026-05-08 01:55 | 0.34874 | 32.42578 | 34955 ft | 429 kts | 215° |
| 2026-05-08 01:55 | 0.32288 | 32.41172 | 34993 ft | 425 kts | 199° |
| 2026-05-08 01:55 | 0.29463 | 32.40418 | 34996 ft | 426 kts | 187° |
| 2026-05-08 01:55 | 0.26535 | 32.40350 | 34991 ft | 418 kts | 173° |
| 2026-05-08 01:56 | 0.20844 | 32.41261 | 35017 ft | 408 kts | 168° |
| 2026-05-08 01:56 | 0.15297 | 32.42270 | 35043 ft | 410 kts | 170° |
| 2026-05-08 01:57 | 0.09622 | 32.43079 | 35059 ft | 414 kts | 172° |
| 2026-05-08 01:57 | 0.03894 | 32.43846 | 35062 ft | 420 kts | 172° |
| 2026-05-08 01:58 | -0.02003 | 32.43615 | 35064 ft | 438 kts | 201° |
| 2026-05-08 01:58 | -0.04668 | 32.42109 | 35059 ft | 447 kts | 220° |
| 2026-05-08 01:58 | -0.06762 | 32.39789 | 35051 ft | 455 kts | 239° |
| 2026-05-08 01:59 | -0.08024 | 32.36886 | 35036 ft | 463 kts | 258° |
| 2026-05-08 01:59 | -0.08268 | 32.33675 | 35032 ft | 470 kts | 277° |
| 2026-05-08 01:59 | -0.07404 | 32.30523 | 35027 ft | 476 kts | 297° |
| 2026-05-08 01:59 | -0.05486 | 32.27810 | 35021 ft | 481 kts | 317° |
| 2026-05-08 02:00 | -0.02742 | 32.25916 | 35019 ft | 486 kts | 337° |
| 2026-05-08 02:00 | 0.00519 | 32.25036 | 35020 ft | 486 kts | 353° |
| 2026-05-08 02:00 | 0.07268 | 32.24153 | 35016 ft | 491 kts | 353° |
| 2026-05-08 02:01 | 0.13999 | 32.23035 | 34975 ft | 490 kts | 339° |
| 2026-05-08 02:01 | 0.16934 | 32.21340 | 35002 ft | 489 kts | 319° |
| 2026-05-08 02:01 | 0.19139 | 32.18780 | 34984 ft | 490 kts | 300° |
| 2026-05-08 02:02 | 0.20379 | 32.15631 | 34974 ft | 489 kts | 281° |
| 2026-05-08 02:02 | 0.20518 | 32.12250 | 34969 ft | 489 kts | 263° |
| 2026-05-08 02:02 | 0.19737 | 32.05511 | 34959 ft | 489 kts | 273° |
| 2026-05-08 02:03 | 0.20238 | 32.02158 | 34971 ft | 489 kts | 285° |
| 2026-05-08 02:03 | 0.21294 | 31.98931 | 34981 ft | 489 kts | 291° |
| 2026-05-08 02:03 | 0.23756 | 31.92603 | 34971 ft | 488 kts | 290° |
| 2026-05-08 02:04 | 0.24551 | 31.89335 | 34961 ft | 484 kts | 272° |
| 2026-05-08 02:04 | 0.24224 | 31.86006 | 34972 ft | 483 kts | 253° |
| 2026-05-08 02:04 | 0.22847 | 31.82970 | 34984 ft | 483 kts | 236° |
| 2026-05-08 02:04 | 0.20737 | 31.80363 | 34982 ft | 483 kts | 224° |
| 2026-05-08 02:05 | 0.18103 | 31.78286 | 34980 ft | 484 kts | 211° |
| 2026-05-08 02:05 | 0.15047 | 31.76899 | 34977 ft | 485 kts | 195° |
| 2026-05-08 02:05 | 0.11726 | 31.76375 | 34965 ft | 485 kts | 180° |
| 2026-05-08 02:05 | 0.08377 | 31.76789 | 34980 ft | 486 kts | 164° |
| 2026-05-08 02:06 | 0.05275 | 31.78091 | 34984 ft | 486 kts | 148° |
| 2026-05-08 02:06 | 0.02618 | 31.80176 | 34989 ft | 487 kts | 133° |
| 2026-05-08 02:06 | 0.00602 | 31.82886 | 34985 ft | 487 kts | 118° |
| 2026-05-08 02:06 | -0.00626 | 31.86024 | 34980 ft | 488 kts | 102° |
| 2026-05-08 02:07 | -0.00979 | 31.89382 | 34976 ft | 488 kts | 87° |
| 2026-05-08 02:07 | -0.00437 | 31.92726 | 34979 ft | 488 kts | 73° |
| 2026-05-08 02:07 | 0.00832 | 31.95813 | 34976 ft | 488 kts | 59° |
| 2026-05-08 02:07 | 0.02908 | 31.98468 | 34969 ft | 484 kts | 46° |
| 2026-05-08 02:08 | 0.07452 | 32.03499 | 34970 ft | 486 kts | 50° |
| 2026-05-08 02:08 | 0.11770 | 32.08643 | 34974 ft | 487 kts | 50° |
| 2026-05-08 02:09 | 0.15299 | 32.14350 | 34977 ft | 486 kts | 76° |
| 2026-05-08 02:09 | 0.15650 | 32.17680 | 34996 ft | 485 kts | 95° |
| 2026-05-08 02:09 | 0.14880 | 32.20943 | 35006 ft | 485 kts | 112° |
| 2026-05-08 02:10 | 0.11368 | 32.26611 | 35024 ft | 483 kts | 139° |
| 2026-05-08 02:10 | 0.08540 | 32.28392 | 35030 ft | 484 kts | 157° |
| 2026-05-08 02:10 | 0.05339 | 32.29447 | 35040 ft | 486 kts | 167° |
| 2026-05-08 02:11 | 0.01995 | 32.29940 | 35026 ft | 487 kts | 178° |
| 2026-05-08 02:11 | -0.01393 | 32.29713 | 35015 ft | 489 kts | 192° |
| 2026-05-08 02:11 | -0.04574 | 32.28578 | 35019 ft | 489 kts | 209° |
| 2026-05-08 02:11 | -0.07285 | 32.26550 | 35012 ft | 489 kts | 226° |
| 2026-05-08 02:12 | -0.09314 | 32.23816 | 35004 ft | 489 kts | 243° |
| 2026-05-08 02:12 | -0.10523 | 32.20648 | 34991 ft | 489 kts | 258° |
| 2026-05-08 02:12 | -0.10909 | 32.17280 | 34991 ft | 489 kts | 271° |
| 2026-05-08 02:12 | -0.10486 | 32.13925 | 34967 ft | 489 kts | 287° |
| 2026-05-08 02:13 | -0.08078 | 32.07578 | 34972 ft | 489 kts | 291° |
| 2026-05-08 02:13 | -0.05723 | 32.01206 | 34977 ft | 490 kts | 289° |
| 2026-05-08 02:14 | -0.04346 | 31.98111 | 34950 ft | 487 kts | 304° |
| 2026-05-08 02:14 | -0.02127 | 31.95597 | 34985 ft | 485 kts | 321° |
| 2026-05-08 02:14 | 0.00730 | 31.93814 | 34989 ft | 485 kts | 336° |
| 2026-05-08 02:14 | 0.03910 | 31.92839 | 34989 ft | 485 kts | 351° |
| 2026-05-08 02:15 | 0.07278 | 31.92700 | 34980 ft | 486 kts | 6° |
| 2026-05-08 02:15 | 0.10560 | 31.93453 | 34984 ft | 486 kts | 22° |
| 2026-05-08 02:15 | 0.13514 | 31.95064 | 34983 ft | 486 kts | 38° |
| 2026-05-08 02:15 | 0.15929 | 31.97429 | 34989 ft | 486 kts | 53° |
| 2026-05-08 02:16 | 0.17606 | 32.00338 | 34987 ft | 486 kts | 69° |
| 2026-05-08 02:16 | 0.18449 | 32.03605 | 34995 ft | 486 kts | 83° |
| 2026-05-08 02:16 | 0.18506 | 32.06975 | 34989 ft | 486 kts | 97° |
| 2026-05-08 02:16 | 0.17685 | 32.10241 | 34992 ft | 486 kts | 110° |
| 2026-05-08 02:17 | 0.15233 | 32.16526 | 34999 ft | 487 kts | 110° |
| 2026-05-08 02:17 | 0.12911 | 32.22875 | 35009 ft | 485 kts | 112° |
| 2026-05-08 02:18 | 0.11197 | 32.25773 | 35024 ft | 484 kts | 131° |
| 2026-05-08 02:18 | 0.08703 | 32.28002 | 35033 ft | 485 kts | 147° |
| 2026-05-08 02:18 | 0.05687 | 32.29491 | 35042 ft | 485 kts | 162° |
| 2026-05-08 02:18 | 0.02377 | 32.30175 | 35043 ft | 486 kts | 176° |
| 2026-05-08 02:19 | -0.00999 | 32.29986 | 35031 ft | 488 kts | 192° |
| 2026-05-08 02:19 | -0.04202 | 32.28904 | 35025 ft | 488 kts | 207° |
| 2026-05-08 02:19 | -0.07002 | 32.26988 | 35017 ft | 489 kts | 223° |
| 2026-05-08 02:19 | -0.09174 | 32.24399 | 35008 ft | 489 kts | 239° |
| 2026-05-08 02:20 | -0.10577 | 32.21314 | 34998 ft | 489 kts | 255° |
| 2026-05-08 02:20 | -0.11134 | 32.17977 | 34994 ft | 488 kts | 268° |
| 2026-05-08 02:20 | -0.10905 | 32.14589 | 34982 ft | 488 kts | 283° |
| 2026-05-08 02:20 | -0.09846 | 32.11386 | 34992 ft | 486 kts | 291° |
| 2026-05-08 02:21 | -0.07390 | 32.05067 | 34985 ft | 488 kts | 290° |
| 2026-05-08 02:21 | -0.04996 | 31.98732 | 34960 ft | 487 kts | 298° |
| 2026-05-08 02:22 | -0.02987 | 31.96032 | 34994 ft | 485 kts | 316° |
| 2026-05-08 02:22 | -0.00315 | 31.94053 | 35000 ft | 485 kts | 332° |
| 2026-05-08 02:22 | 0.02817 | 31.92820 | 35006 ft | 485 kts | 347° |
| 2026-05-08 02:22 | 0.06161 | 31.92415 | 35002 ft | 486 kts | 1° |
| 2026-05-08 02:23 | 0.09501 | 31.92893 | 34996 ft | 486 kts | 17° |
| 2026-05-08 02:23 | 0.12588 | 31.94246 | 34995 ft | 487 kts | 32° |
| 2026-05-08 02:23 | 0.15198 | 31.96381 | 35003 ft | 487 kts | 48° |
| 2026-05-08 02:23 | 0.17144 | 31.99144 | 35002 ft | 487 kts | 64° |
| 2026-05-08 02:24 | 0.18279 | 32.02314 | 34999 ft | 487 kts | 79° |
| 2026-05-08 02:24 | 0.18603 | 32.05675 | 35010 ft | 487 kts | 91° |
| 2026-05-08 02:24 | 0.18115 | 32.08989 | 34999 ft | 487 kts | 108° |
| 2026-05-08 02:24 | 0.16935 | 32.12172 | 35011 ft | 487 kts | 111° |
| 2026-05-08 02:25 | 0.14500 | 32.18490 | 35019 ft | 487 kts | 110° |
| 2026-05-08 02:25 | 0.11963 | 32.24734 | 35000 ft | 485 kts | 124° |
| 2026-05-08 02:26 | 0.09727 | 32.27238 | 35038 ft | 484 kts | 141° |
| 2026-05-08 02:26 | 0.06879 | 32.29022 | 35043 ft | 485 kts | 156° |
| 2026-05-08 02:26 | 0.03661 | 32.30027 | 35042 ft | 486 kts | 171° |
| 2026-05-08 02:26 | 0.00290 | 32.30185 | 35040 ft | 487 kts | 186° |
| 2026-05-08 02:27 | -0.03018 | 32.29448 | 35030 ft | 488 kts | 201° |
| 2026-05-08 02:27 | -0.05998 | 32.27852 | 35027 ft | 488 kts | 217° |
| 2026-05-08 02:27 | -0.08444 | 32.25503 | 35017 ft | 489 kts | 233° |
| 2026-05-08 02:27 | -0.10165 | 32.22601 | 35010 ft | 489 kts | 248° |
| 2026-05-08 02:28 | -0.11057 | 32.19328 | 35001 ft | 488 kts | 263° |
| 2026-05-08 02:28 | -0.11161 | 32.15952 | 34997 ft | 488 kts | 276° |
| 2026-05-08 02:28 | -0.10394 | 32.12664 | 34992 ft | 486 kts | 290° |
| 2026-05-08 02:28 | -0.09170 | 32.09507 | 34999 ft | 487 kts | 292° |
| 2026-05-08 02:29 | -0.06756 | 32.03168 | 34994 ft | 489 kts | 290° |
| 2026-05-08 02:29 | -0.03965 | 31.97034 | 34997 ft | 485 kts | 309° |
| 2026-05-08 02:30 | -0.01517 | 31.94739 | 35005 ft | 485 kts | 326° |
| 2026-05-08 02:30 | 0.01474 | 31.93183 | 35011 ft | 485 kts | 341° |
| 2026-05-08 02:30 | 0.04758 | 31.92432 | 35012 ft | 486 kts | 355° |
| 2026-05-08 02:30 | 0.08082 | 31.92537 | 35006 ft | 486 kts | 10° |
| 2026-05-08 02:31 | 0.11311 | 31.93527 | 35008 ft | 487 kts | 26° |
| 2026-05-08 02:31 | 0.14152 | 31.95348 | 35012 ft | 487 kts | 41° |
| 2026-05-08 02:31 | 0.16423 | 31.97898 | 35014 ft | 487 kts | 57° |
| 2026-05-08 02:31 | 0.17898 | 32.00886 | 35015 ft | 487 kts | 72° |
| 2026-05-08 02:32 | 0.18556 | 32.04194 | 35020 ft | 487 kts | 86° |
| 2026-05-08 02:32 | 0.18445 | 32.07566 | 35014 ft | 487 kts | 100° |
| 2026-05-08 02:32 | 0.17475 | 32.10797 | 35024 ft | 486 kts | 111° |
| 2026-05-08 02:32 | 0.16237 | 32.13947 | 35016 ft | 487 kts | 111° |
| 2026-05-08 02:33 | 0.13853 | 32.20276 | 35014 ft | 487 kts | 109° |
| 2026-05-08 02:33 | 0.10795 | 32.26229 | 35012 ft | 484 kts | 134° |
| 2026-05-08 02:34 | 0.08178 | 32.28337 | 35011 ft | 485 kts | 149° |
| 2026-05-08 02:34 | 0.05096 | 32.29685 | 35015 ft | 485 kts | 164° |
| 2026-05-08 02:34 | 0.01762 | 32.30218 | 35007 ft | 487 kts | 179° |
| 2026-05-08 02:34 | -0.00471 | 32.30090 | 35004 ft | 487 kts | 189° |
| 2026-05-08 02:35 | -0.03725 | 32.29150 | 35001 ft | 488 kts | 205° |
| 2026-05-08 02:35 | -0.06596 | 32.27373 | 34999 ft | 489 kts | 220° |
| 2026-05-08 02:35 | -0.08890 | 32.24878 | 35000 ft | 489 kts | 236° |
| 2026-05-08 02:35 | -0.10432 | 32.21866 | 34994 ft | 489 kts | 252° |
| 2026-05-08 02:36 | -0.11128 | 32.18558 | 34998 ft | 488 kts | 266° |
| 2026-05-08 02:36 | -0.11048 | 32.15167 | 34998 ft | 488 kts | 280° |
| 2026-05-08 02:36 | -0.10100 | 32.11921 | 35009 ft | 487 kts | 291° |
| 2026-05-08 02:36 | -0.08862 | 32.08769 | 35008 ft | 488 kts | 292° |
| 2026-05-08 02:37 | -0.06469 | 32.02429 | 35012 ft | 489 kts | 290° |
| 2026-05-08 02:37 | -0.03440 | 31.96441 | 35014 ft | 485 kts | 313° |
| 2026-05-08 02:38 | -0.00834 | 31.94309 | 35020 ft | 485 kts | 329° |
| 2026-05-08 02:38 | 0.02242 | 31.92941 | 35026 ft | 485 kts | 344° |
| 2026-05-08 02:38 | 0.05562 | 31.92389 | 35017 ft | 486 kts | 359° |
| 2026-05-08 02:38 | 0.08922 | 31.92711 | 35017 ft | 486 kts | 14° |
| 2026-05-08 02:39 | 0.12066 | 31.93913 | 35021 ft | 487 kts | 30° |
| 2026-05-08 02:39 | 0.14782 | 31.95925 | 35026 ft | 487 kts | 45° |
| 2026-05-08 02:39 | 0.16855 | 31.98588 | 35027 ft | 487 kts | 61° |
| 2026-05-08 02:39 | 0.18144 | 32.01708 | 35027 ft | 487 kts | 76° |
| 2026-05-08 02:40 | 0.18603 | 32.05045 | 35034 ft | 487 kts | 89° |
| 2026-05-08 02:40 | 0.18276 | 32.08405 | 35027 ft | 487 kts | 105° |
| 2026-05-08 02:40 | 0.15927 | 32.14736 | 35028 ft | 487 kts | 111° |
| 2026-05-08 02:41 | 0.13562 | 32.21089 | 35033 ft | 487 kts | 109° |
| 2026-05-08 02:41 | 0.12279 | 32.24207 | 35000 ft | 485 kts | 120° |
| 2026-05-08 02:41 | 0.10191 | 32.26827 | 35028 ft | 485 kts | 138° |
| 2026-05-08 02:42 | 0.07421 | 32.28752 | 35029 ft | 485 kts | 153° |
| 2026-05-08 02:42 | 0.04255 | 32.29892 | 35031 ft | 486 kts | 168° |
| 2026-05-08 02:42 | 0.00934 | 32.30197 | 35019 ft | 487 kts | 183° |
| 2026-05-08 02:42 | -0.02438 | 32.29608 | 35012 ft | 488 kts | 199° |
| 2026-05-08 02:43 | -0.05450 | 32.28170 | 35011 ft | 488 kts | 214° |
| 2026-05-08 02:43 | -0.08002 | 32.25941 | 35012 ft | 488 kts | 230° |
| 2026-05-08 02:43 | -0.09859 | 32.23112 | 35010 ft | 488 kts | 246° |
| 2026-05-08 02:43 | -0.10898 | 32.19845 | 35007 ft | 488 kts | 261° |
| 2026-05-08 02:44 | -0.11116 | 32.16514 | 35014 ft | 488 kts | 274° |
| 2026-05-08 02:44 | -0.10492 | 32.13195 | 35008 ft | 486 kts | 289° |
| 2026-05-08 02:44 | -0.08050 | 32.06882 | 35021 ft | 488 kts | 291° |
| 2026-05-08 02:45 | -0.05719 | 32.00517 | 35017 ft | 489 kts | 290° |
| 2026-05-08 02:45 | -0.04217 | 31.97495 | 35005 ft | 486 kts | 307° |
| 2026-05-08 02:45 | -0.01875 | 31.95088 | 35026 ft | 485 kts | 323° |
| 2026-05-08 02:46 | 0.01050 | 31.93415 | 35032 ft | 485 kts | 338° |
| 2026-05-08 02:46 | 0.04295 | 31.92541 | 35036 ft | 486 kts | 353° |
| 2026-05-08 02:46 | 0.07671 | 31.92521 | 35031 ft | 486 kts | 8° |
| 2026-05-08 02:46 | 0.10933 | 31.93394 | 35030 ft | 487 kts | 24° |
| 2026-05-08 02:47 | 0.13838 | 31.95115 | 35033 ft | 487 kts | 39° |
| 2026-05-08 02:47 | 0.16166 | 31.97547 | 35038 ft | 487 kts | 55° |
| 2026-05-08 02:47 | 0.17765 | 32.00522 | 35038 ft | 487 kts | 70° |
| 2026-05-08 02:47 | 0.18522 | 32.03819 | 35042 ft | 487 kts | 85° |
| 2026-05-08 02:48 | 0.18502 | 32.07194 | 35037 ft | 487 kts | 99° |
| 2026-05-08 02:48 | 0.17608 | 32.10448 | 35049 ft | 487 kts | 111° |
| 2026-05-08 02:48 | 0.15149 | 32.16746 | 35042 ft | 488 kts | 110° |
| 2026-05-08 02:49 | 0.12817 | 32.23106 | 35033 ft | 485 kts | 114° |
| 2026-05-08 02:49 | 0.11044 | 32.25955 | 35042 ft | 484 kts | 132° |
| 2026-05-08 02:49 | 0.08499 | 32.28139 | 35039 ft | 485 kts | 148° |
| 2026-05-08 02:50 | 0.05448 | 32.29577 | 35044 ft | 486 kts | 162° |
| 2026-05-08 02:50 | 0.02130 | 32.30203 | 35034 ft | 487 kts | 177° |
| 2026-05-08 02:50 | -0.01232 | 32.29954 | 35024 ft | 488 kts | 193° |
| 2026-05-08 02:50 | -0.04421 | 32.28815 | 35022 ft | 488 kts | 208° |
| 2026-05-08 02:51 | -0.07183 | 32.26855 | 35025 ft | 488 kts | 224° |
| 2026-05-08 02:51 | -0.09316 | 32.24224 | 35024 ft | 488 kts | 240° |
| 2026-05-08 02:51 | -0.10667 | 32.21123 | 35019 ft | 488 kts | 256° |
| 2026-05-08 02:51 | -0.11176 | 32.17830 | 35025 ft | 488 kts | 268° |
| 2026-05-08 02:52 | -0.10916 | 32.14458 | 35018 ft | 488 kts | 284° |
| 2026-05-08 02:52 | -0.09843 | 32.11266 | 35039 ft | 486 kts | 291° |
| 2026-05-08 02:52 | -0.07391 | 32.04954 | 35029 ft | 488 kts | 290° |
| 2026-05-08 02:53 | -0.04987 | 31.98618 | 35017 ft | 486 kts | 299° |
| 2026-05-08 02:53 | -0.02958 | 31.95938 | 35034 ft | 485 kts | 317° |
| 2026-05-08 02:53 | -0.00242 | 31.93963 | 35041 ft | 485 kts | 332° |
| 2026-05-08 02:54 | 0.02901 | 31.92754 | 35041 ft | 486 kts | 347° |
| 2026-05-08 02:54 | 0.06254 | 31.92374 | 35039 ft | 486 kts | 2° |
| 2026-05-08 02:54 | 0.09587 | 31.92876 | 35041 ft | 487 kts | 17° |
| 2026-05-08 02:54 | 0.12673 | 31.94257 | 35042 ft | 487 kts | 33° |
| 2026-05-08 02:55 | 0.15269 | 31.96416 | 35046 ft | 487 kts | 49° |
| 2026-05-08 02:55 | 0.18309 | 32.02390 | 35054 ft | 488 kts | 79° |
| 2026-05-08 02:55 | 0.18610 | 32.05745 | 35061 ft | 487 kts | 92° |
| 2026-05-08 02:56 | 0.18087 | 32.09081 | 35048 ft | 487 kts | 108° |
| 2026-05-08 02:56 | 0.15663 | 32.15402 | 35056 ft | 488 kts | 111° |
| 2026-05-08 02:57 | 0.13324 | 32.21760 | 35055 ft | 488 kts | 109° |
| 2026-05-08 02:57 | 0.11912 | 32.24820 | 35038 ft | 485 kts | 124° |
| 2026-05-08 02:57 | 0.09647 | 32.27306 | 35053 ft | 485 kts | 141° |
| 2026-05-08 02:57 | 0.06782 | 32.29053 | 35060 ft | 485 kts | 157° |
| 2026-05-08 02:58 | 0.03544 | 32.30018 | 35053 ft | 486 kts | 171° |
| 2026-05-08 02:58 | 0.00169 | 32.30126 | 35040 ft | 487 kts | 186° |
| 2026-05-08 02:58 | -0.03113 | 32.29342 | 35039 ft | 488 kts | 202° |
| 2026-05-08 02:58 | -0.06074 | 32.27692 | 35039 ft | 488 kts | 218° |
| 2026-05-08 02:59 | -0.08475 | 32.25304 | 35032 ft | 488 kts | 234° |
| 2026-05-08 02:59 | -0.10140 | 32.22366 | 35036 ft | 488 kts | 249° |
| 2026-05-08 02:59 | -0.10965 | 32.19089 | 35036 ft | 488 kts | 264° |
| 2026-05-08 02:59 | -0.11006 | 32.15697 | 35037 ft | 488 kts | 277° |
| 2026-05-08 03:00 | -0.10169 | 32.12436 | 35035 ft | 486 kts | 291° |
| 2026-05-08 03:00 | -0.07710 | 32.06130 | 35040 ft | 488 kts | 291° |
| 2026-05-08 03:01 | -0.05378 | 31.99754 | 35035 ft | 486 kts | 292° |
| 2026-05-08 03:01 | -0.03691 | 31.96893 | 35038 ft | 485 kts | 310° |
| 2026-05-08 03:01 | -0.01154 | 31.94623 | 35047 ft | 485 kts | 327° |
| 2026-05-08 03:01 | 0.01828 | 31.93154 | 35058 ft | 486 kts | 342° |
| 2026-05-08 03:02 | 0.05132 | 31.92474 | 35057 ft | 486 kts | 356° |
| 2026-05-08 03:02 | 0.08501 | 31.92669 | 35058 ft | 487 kts | 12° |
| 2026-05-08 03:02 | 0.11692 | 31.93752 | 35056 ft | 487 kts | 27° |
| 2026-05-08 03:02 | 0.14479 | 31.95664 | 35059 ft | 487 kts | 43° |
| 2026-05-08 03:03 | 0.16647 | 31.98257 | 35065 ft | 487 kts | 59° |
| 2026-05-08 03:03 | 0.18040 | 32.01328 | 35068 ft | 487 kts | 75° |
| 2026-05-08 03:03 | 0.18592 | 32.04659 | 35071 ft | 487 kts | 88° |
| 2026-05-08 03:03 | 0.18362 | 32.08028 | 35064 ft | 487 kts | 103° |
| 2026-05-08 03:04 | 0.17302 | 32.11235 | 35079 ft | 486 kts | 111° |
| 2026-05-08 03:04 | 0.14853 | 32.17535 | 35068 ft | 487 kts | 110° |
| 2026-05-08 03:05 | 0.12464 | 32.23862 | 35059 ft | 485 kts | 118° |
| 2026-05-08 03:05 | 0.10465 | 32.26561 | 35067 ft | 485 kts | 136° |
| 2026-05-08 03:05 | 0.07756 | 32.28564 | 35070 ft | 485 kts | 152° |
| 2026-05-08 03:05 | 0.04618 | 32.29787 | 35064 ft | 486 kts | 167° |
| 2026-05-08 03:06 | 0.01262 | 32.30173 | 35051 ft | 487 kts | 181° |
| 2026-05-08 03:06 | -0.02082 | 32.29666 | 35047 ft | 488 kts | 197° |
| 2026-05-08 03:06 | -0.05167 | 32.28277 | 35048 ft | 489 kts | 213° |
| 2026-05-08 03:06 | -0.07765 | 32.26094 | 35040 ft | 489 kts | 229° |
| 2026-05-08 03:07 | -0.09670 | 32.23299 | 35038 ft | 489 kts | 245° |
| 2026-05-08 03:07 | -0.10755 | 32.20088 | 35034 ft | 488 kts | 260° |
| 2026-05-08 03:07 | -0.11021 | 32.16710 | 35046 ft | 488 kts | 273° |
| 2026-05-08 03:07 | -0.10443 | 32.13386 | 35038 ft | 487 kts | 289° |
| 2026-05-08 03:08 | -0.09249 | 32.10228 | 35046 ft | 487 kts | 292° |
| 2026-05-08 03:08 | -0.06821 | 32.03906 | 35043 ft | 488 kts | 290° |
| 2026-05-08 03:09 | -0.04207 | 31.97672 | 35034 ft | 486 kts | 306° |
| 2026-05-08 03:09 | -0.01897 | 31.95230 | 35046 ft | 485 kts | 323° |
| 2026-05-08 03:09 | 0.01001 | 31.93527 | 35055 ft | 485 kts | 338° |
| 2026-05-08 03:09 | 0.04251 | 31.92620 | 35059 ft | 486 kts | 352° |
| 2026-05-08 03:10 | 0.07622 | 31.92575 | 35051 ft | 487 kts | 7° |
| 2026-05-08 03:10 | 0.10884 | 31.93424 | 35050 ft | 487 kts | 23° |
| 2026-05-08 03:10 | 0.13808 | 31.95132 | 35057 ft | 487 kts | 39° |
| 2026-05-08 03:10 | 0.16148 | 31.97555 | 35061 ft | 487 kts | 55° |
| 2026-05-08 03:11 | 0.17757 | 32.00525 | 35059 ft | 487 kts | 70° |
| 2026-05-08 03:11 | 0.18519 | 32.03815 | 35064 ft | 487 kts | 85° |
| 2026-05-08 03:11 | 0.18508 | 32.07150 | 35063 ft | 487 kts | 98° |
| 2026-05-08 03:11 | 0.17606 | 32.10443 | 35073 ft | 486 kts | 111° |
| 2026-05-08 03:12 | 0.16377 | 32.13582 | 35068 ft | 487 kts | 111° |
| 2026-05-08 03:12 | 0.13994 | 32.19884 | 35062 ft | 488 kts | 109° |
| 2026-05-08 03:13 | 0.11045 | 32.25959 | 35055 ft | 485 kts | 132° |
| 2026-05-08 03:13 | 0.08518 | 32.28117 | 35046 ft | 473 kts | 148° |
| 2026-05-08 03:13 | 0.05585 | 32.29474 | 35038 ft | 456 kts | 163° |
| 2026-05-08 03:13 | 0.02568 | 32.30037 | 35031 ft | 440 kts | 177° |
| 2026-05-08 03:14 | -0.00426 | 32.29879 | 35022 ft | 424 kts | 191° |
| 2026-05-08 03:14 | -0.03184 | 32.29062 | 35022 ft | 407 kts | 204° |
| 2026-05-08 03:14 | -0.05590 | 32.27685 | 35003 ft | 391 kts | 218° |
| 2026-05-08 03:14 | -0.07539 | 32.25889 | 35000 ft | 373 kts | 231° |
| 2026-05-08 03:15 | -0.08991 | 32.23819 | 34981 ft | 356 kts | 243° |
| 2026-05-08 03:15 | -0.09712 | 32.21511 | 34458 ft | 352 kts | 267° |
| 2026-05-08 03:15 | -0.09564 | 32.19000 | 33034 ft | 377 kts | 284° |
| 2026-05-08 03:15 | -0.08631 | 32.16462 | 31793 ft | 398 kts | 299° |
| 2026-05-08 03:16 | -0.07086 | 32.14222 | 31677 ft | 382 kts | 313° |
| 2026-05-08 03:16 | -0.05233 | 32.12504 | 32242 ft | 346 kts | 324° |
| 2026-05-08 03:16 | -0.03266 | 32.11293 | 32407 ft | 324 kts | 335° |
| 2026-05-08 03:16 | -0.01170 | 32.10457 | 31707 ft | 330 kts | 344° |
| 2026-05-08 03:17 | 0.01145 | 32.09912 | 30545 ft | 354 kts | 352° |
| 2026-05-08 03:17 | 0.03661 | 32.09642 | 29629 ft | 368 kts | 358° |
| 2026-05-08 03:17 | 0.06177 | 32.09639 | 29553 ft | 351 kts | 4° |
| 2026-05-08 03:17 | 0.08515 | 32.09849 | 29892 ft | 324 kts | 9° |
| 2026-05-08 03:18 | 0.10674 | 32.10213 | 29775 ft | 311 kts | 13° |
| 2026-05-08 03:18 | 0.12805 | 32.10717 | 28951 ft | 322 kts | 16° |
| 2026-05-08 03:18 | 0.15010 | 32.11372 | 27938 ft | 339 kts | 19° |
| 2026-05-08 03:18 | 0.17258 | 32.12156 | 27425 ft | 340 kts | 21° |
| 2026-05-08 03:19 | 0.19396 | 32.13001 | 27470 ft | 321 kts | 23° |
| 2026-05-08 03:19 | 0.21383 | 32.13868 | 27498 ft | 303 kts | 25° |
| 2026-05-08 03:19 | 0.23275 | 32.14765 | 27064 ft | 303 kts | 27° |
| 2026-05-08 03:19 | 0.25187 | 32.15737 | 26274 ft | 316 kts | 28° |
| 2026-05-08 03:20 | 0.27155 | 32.16796 | 25611 ft | 324 kts | 29° |
| 2026-05-08 03:20 | 0.29100 | 32.17895 | 25406 ft | 315 kts | 30° |
| 2026-05-08 03:20 | 0.30946 | 32.18982 | 25394 ft | 299 kts | 31° |
| 2026-05-08 03:20 | 0.32692 | 32.20045 | 25171 ft | 292 kts | 32° |
| 2026-05-08 03:21 | 0.34427 | 32.21135 | 24606 ft | 299 kts | 32° |
| 2026-05-08 03:21 | 0.35604 | 32.21892 | 24167 ft | 306 kts | 33° |
| 2026-05-08 03:21 | 0.37982 | 32.23456 | 23629 ft | 307 kts | 33° |
| 2026-05-08 03:21 | 0.39718 | 32.24628 | 23484 ft | 295 kts | 34° |
| 2026-05-08 03:22 | 0.40845 | 32.25399 | 23390 ft | 288 kts | 34° |
| 2026-05-08 03:22 | 0.43008 | 32.26904 | 22823 ft | 287 kts | 34° |
| 2026-05-08 03:22 | 0.44121 | 32.27690 | 22397 ft | 292 kts | 35° |
| 2026-05-08 03:22 | 0.45785 | 32.28879 | 21872 ft | 296 kts | 35° |
| 2026-05-08 03:23 | 0.47438 | 32.30081 | 21599 ft | 290 kts | 36° |
| 2026-05-08 03:23 | 0.49030 | 32.31257 | 21429 ft | 280 kts | 36° |
| 2026-05-08 03:23 | 0.50570 | 32.32409 | 21111 ft | 276 kts | 36° |
| 2026-05-08 03:23 | 0.52115 | 32.33579 | 20608 ft | 281 kts | 37° |
| 2026-05-08 03:24 | 0.53679 | 32.34772 | 20136 ft | 284 kts | 37° |
| 2026-05-08 03:24 | 0.55238 | 32.35968 | 19852 ft | 280 kts | 37° |
| 2026-05-08 03:24 | 0.56740 | 32.37123 | 19638 ft | 272 kts | 37° |
| 2026-05-08 03:24 | 0.58243 | 32.38283 | 19353 ft | 269 kts | 37° |
| 2026-05-08 03:25 | 0.59724 | 32.39430 | 18929 ft | 271 kts | 37° |
| 2026-05-08 03:25 | 0.61200 | 32.40581 | 18515 ft | 274 kts | 37° |
| 2026-05-08 03:25 | 0.62691 | 32.41751 | 18206 ft | 271 kts | 38° |
| 2026-05-08 03:25 | 0.64170 | 32.42919 | 17939 ft | 265 kts | 38° |
| 2026-05-08 03:26 | 0.65588 | 32.44040 | 17629 ft | 262 kts | 38° |
| 2026-05-08 03:26 | 0.67021 | 32.45169 | 17179 ft | 263 kts | 38° |
| 2026-05-08 03:26 | 0.68466 | 32.46300 | 16756 ft | 265 kts | 38° |
| 2026-05-08 03:26 | 0.69918 | 32.47429 | 16430 ft | 262 kts | 38° |
| 2026-05-08 03:27 | 0.71347 | 32.48529 | 16178 ft | 258 kts | 37° |
| 2026-05-08 03:27 | 0.72764 | 32.49612 | 15855 ft | 255 kts | 37° |
| 2026-05-08 03:27 | 0.74180 | 32.50686 | 15461 ft | 257 kts | 37° |
| 2026-05-08 03:27 | 0.75613 | 32.51763 | 15073 ft | 258 kts | 37° |
| 2026-05-08 03:28 | 0.77051 | 32.52832 | 14763 ft | 256 kts | 37° |
| 2026-05-08 03:28 | 0.78475 | 32.53878 | 14498 ft | 252 kts | 37° |
| 2026-05-08 03:28 | 0.79890 | 32.54906 | 14187 ft | 251 kts | 37° |
| 2026-05-08 03:28 | 0.81310 | 32.55923 | 13832 ft | 252 kts | 36° |
| 2026-05-08 03:29 | 0.82744 | 32.56936 | 13431 ft | 252 kts | 36° |
| 2026-05-08 03:29 | 0.84181 | 32.57933 | 13137 ft | 250 kts | 35° |
| 2026-05-08 03:29 | 0.85615 | 32.58893 | 12851 ft | 247 kts | 34° |
| 2026-05-08 03:29 | 0.87053 | 32.59820 | 12511 ft | 246 kts | 33° |
| 2026-05-08 03:30 | 0.89969 | 32.61613 | 11814 ft | 246 kts | 32° |
| 2026-05-08 03:30 | 0.92881 | 32.63332 | 11235 ft | 241 kts | 31° |
| 2026-05-08 03:31 | 0.95779 | 32.65006 | 10579 ft | 240 kts | 31° |
| 2026-05-08 03:31 | 0.98666 | 32.66651 | 10001 ft | 237 kts | 30° |
| 2026-05-08 03:32 | 1.00097 | 32.67461 | 9680 ft | 236 kts | 30° |
| 2026-05-08 03:32 | 1.01507 | 32.68254 | 9344 ft | 236 kts | 30° |
| 2026-05-08 03:32 | 1.02953 | 32.69066 | 8994 ft | 235 kts | 30° |
| 2026-05-08 03:32 | 1.04380 | 32.69868 | 8687 ft | 234 kts | 30° |
| 2026-05-08 03:33 | 1.05790 | 32.70663 | 8386 ft | 232 kts | 30° |
| 2026-05-08 03:33 | 1.07177 | 32.71449 | 8075 ft | 232 kts | 30° |
| 2026-05-08 03:33 | 1.08574 | 32.72245 | 7765 ft | 232 kts | 30° |
| 2026-05-08 03:33 | 1.09988 | 32.73056 | 7434 ft | 231 kts | 30° |
| 2026-05-08 03:34 | 1.11359 | 32.73849 | 7144 ft | 230 kts | 31° |
| 2026-05-08 03:34 | 1.12739 | 32.74653 | 6843 ft | 229 kts | 31° |
| 2026-05-08 03:34 | 1.14112 | 32.75458 | 6548 ft | 229 kts | 31° |
| 2026-05-08 03:34 | 1.15482 | 32.76264 | 6230 ft | 229 kts | 31° |
| 2026-05-08 03:35 | 1.16865 | 32.77081 | 5923 ft | 228 kts | 31° |
| 2026-05-08 03:35 | 1.18220 | 32.77889 | 5639 ft | 225 kts | 31° |
| 2026-05-08 03:35 | 1.19544 | 32.78684 | 5368 ft | 224 kts | 31° |
| 2026-05-08 03:35 | 1.20873 | 32.79489 | 5067 ft | 223 kts | 31° |
| 2026-05-08 03:36 | 1.22193 | 32.80296 | 4787 ft | 222 kts | 31° |
| 2026-05-08 03:36 | 1.23503 | 32.81104 | 4486 ft | 221 kts | 32° |
| 2026-05-08 03:36 | 1.24803 | 32.81911 | 4208 ft | 219 kts | 32° |
| 2026-05-08 03:36 | 1.26098 | 32.82719 | 3905 ft | 219 kts | 32° |
| 2026-05-08 03:37 | 1.27390 | 32.83529 | 3600 ft | 219 kts | 32° |
| 2026-05-08 03:37 | 1.28666 | 32.84330 | 3449 ft | 213 kts | 32° |
| 2026-05-08 03:37 | 1.29880 | 32.85092 | 3417 ft | 201 kts | 32° |
| 2026-05-08 03:37 | 1.29954 | 32.85138 | 3417 ft | 0 kts | 32° |